<?xml version="1.0" encoding="UTF-8" standalone="no" ?>
<gpx xmlns="http://www.topografix.com/GPX/1/1" xmlns:xsi="http://www.w3.org/2001/XMLSchema-instance" xsi:schemaLocation="http://www.topografix.com/GPX/1/1 http://www.topografix.com/GPX/1/1/gpx.xsd" version="1.1" creator="VisuGPX - https://www.visugpx.com">
  <metadata>
    <name>Tour de France 2019</name>
    <desc><![CDATA[4272km en 2 mois en tandem avec notre petit chien dans le panier avant]]></desc>
  </metadata>
  <trk>
    <name><![CDATA[Tracé 20191028-075628]]></name>
    <trkseg>
      <trkpt lat="44.37681" lon="3.52225">
        <ele>523.335</ele>
        <time>2019-10-28T07:00:01Z</time>
      </trkpt>
      <trkpt lat="44.37672" lon="3.52131">
        <ele>515.091</ele>
        <time>2019-10-28T07:05:10Z</time>
      </trkpt>
      <trkpt lat="44.37556" lon="3.52076">
        <ele>515.524</ele>
        <time>2019-10-28T07:05:40Z</time>
      </trkpt>
      <trkpt lat="44.37368" lon="3.51975">
        <ele>508.238</ele>
        <time>2019-10-28T07:06:10Z</time>
      </trkpt>
      <trkpt lat="44.37207" lon="3.51899">
        <ele>501.574</ele>
        <time>2019-10-28T07:06:43Z</time>
      </trkpt>
      <trkpt lat="44.37073" lon="3.51928">
        <ele>507.298</ele>
        <time>2019-10-28T07:07:13Z</time>
      </trkpt>
      <trkpt lat="44.36942" lon="3.51993">
        <ele>511.983</ele>
        <time>2019-10-28T07:07:43Z</time>
      </trkpt>
      <trkpt lat="44.36797" lon="3.52082">
        <ele>511.177</ele>
        <time>2019-10-28T07:08:13Z</time>
      </trkpt>
      <trkpt lat="44.36659" lon="3.52141">
        <ele>504.393</ele>
        <time>2019-10-28T07:08:43Z</time>
      </trkpt>
      <trkpt lat="44.36515" lon="3.52192">
        <ele>504.498</ele>
        <time>2019-10-28T07:09:13Z</time>
      </trkpt>
      <trkpt lat="44.36362" lon="3.52223">
        <ele>504.616</ele>
        <time>2019-10-28T07:09:43Z</time>
      </trkpt>
      <trkpt lat="44.36206" lon="3.5221">
        <ele>506.317</ele>
        <time>2019-10-28T07:10:13Z</time>
      </trkpt>
      <trkpt lat="44.36052" lon="3.52177">
        <ele>506.293</ele>
        <time>2019-10-28T07:10:43Z</time>
      </trkpt>
      <trkpt lat="44.3588" lon="3.52139">
        <ele>504.756</ele>
        <time>2019-10-28T07:11:16Z</time>
      </trkpt>
      <trkpt lat="44.35748" lon="3.52053">
        <ele>499.251</ele>
        <time>2019-10-28T07:11:46Z</time>
      </trkpt>
      <trkpt lat="44.35622" lon="3.51928">
        <ele>481.421</ele>
        <time>2019-10-28T07:12:16Z</time>
      </trkpt>
      <trkpt lat="44.3551" lon="3.51817">
        <ele>494.84</ele>
        <time>2019-10-28T07:12:46Z</time>
      </trkpt>
      <trkpt lat="44.35399" lon="3.51763">
        <ele>494.677</ele>
        <time>2019-10-28T07:13:16Z</time>
      </trkpt>
      <trkpt lat="44.35274" lon="3.51747">
        <ele>475.014</ele>
        <time>2019-10-28T07:13:46Z</time>
      </trkpt>
      <trkpt lat="44.35164" lon="3.51738">
        <ele>453.066</ele>
        <time>2019-10-28T07:14:16Z</time>
      </trkpt>
      <trkpt lat="44.35106" lon="3.51756">
        <ele>449.568</ele>
        <time>2019-10-28T07:15:10Z</time>
      </trkpt>
      <trkpt lat="44.35011" lon="3.51781">
        <ele>475.385</ele>
        <time>2019-10-28T07:15:40Z</time>
      </trkpt>
      <trkpt lat="44.35084" lon="3.51484">
        <ele>513.828</ele>
        <time>2019-10-28T07:16:13Z</time>
      </trkpt>
      <trkpt lat="44.35175" lon="3.51274">
        <ele>514.504</ele>
        <time>2019-10-28T07:16:43Z</time>
      </trkpt>
      <trkpt lat="44.35182" lon="3.51143">
        <ele>514.363</ele>
        <time>2019-10-28T07:17:13Z</time>
      </trkpt>
      <trkpt lat="44.35114" lon="3.51056">
        <ele>516.837</ele>
        <time>2019-10-28T07:17:43Z</time>
      </trkpt>
      <trkpt lat="44.35015" lon="3.51038">
        <ele>506.006</ele>
        <time>2019-10-28T07:18:13Z</time>
      </trkpt>
      <trkpt lat="44.34924" lon="3.51093">
        <ele>492.616</ele>
        <time>2019-10-28T07:18:43Z</time>
      </trkpt>
      <trkpt lat="44.3485" lon="3.51148">
        <ele>486.684</ele>
        <time>2019-10-28T07:19:13Z</time>
      </trkpt>
      <trkpt lat="44.34753" lon="3.51217">
        <ele>500.69</ele>
        <time>2019-10-28T07:19:43Z</time>
      </trkpt>
      <trkpt lat="44.34535" lon="3.51181">
        <ele>511.601</ele>
        <time>2019-10-28T07:20:16Z</time>
      </trkpt>
      <trkpt lat="44.34364" lon="3.509">
        <ele>514</ele>
        <time>2019-10-28T07:20:46Z</time>
      </trkpt>
      <trkpt lat="44.34242" lon="3.50549">
        <ele>503.128</ele>
        <time>2019-10-28T07:21:16Z</time>
      </trkpt>
      <trkpt lat="44.34187" lon="3.5031">
        <ele>495.921</ele>
        <time>2019-10-28T07:21:46Z</time>
      </trkpt>
      <trkpt lat="44.3412" lon="3.5012">
        <ele>496.094</ele>
        <time>2019-10-28T07:22:16Z</time>
      </trkpt>
      <trkpt lat="44.34027" lon="3.49954">
        <ele>499.984</ele>
        <time>2019-10-28T07:22:46Z</time>
      </trkpt>
      <trkpt lat="44.33944" lon="3.49837">
        <ele>500.107</ele>
        <time>2019-10-28T07:23:16Z</time>
      </trkpt>
      <trkpt lat="44.33884" lon="3.49765">
        <ele>508.867</ele>
        <time>2019-10-28T07:23:46Z</time>
      </trkpt>
      <trkpt lat="44.33825" lon="3.49704">
        <ele>513.027</ele>
        <time>2019-10-28T07:24:16Z</time>
      </trkpt>
      <trkpt lat="44.3376" lon="3.49654">
        <ele>506.728</ele>
        <time>2019-10-28T07:24:49Z</time>
      </trkpt>
      <trkpt lat="44.3369" lon="3.49618">
        <ele>507.041</ele>
        <time>2019-10-28T07:25:19Z</time>
      </trkpt>
      <trkpt lat="44.33614" lon="3.49585">
        <ele>498.291</ele>
        <time>2019-10-28T07:25:49Z</time>
      </trkpt>
      <trkpt lat="44.3354" lon="3.49532">
        <ele>513.126</ele>
        <time>2019-10-28T07:26:19Z</time>
      </trkpt>
      <trkpt lat="44.33605" lon="3.49393">
        <ele>517.299</ele>
        <time>2019-10-28T07:26:49Z</time>
      </trkpt>
      <trkpt lat="44.33733" lon="3.4924">
        <ele>515.995</ele>
        <time>2019-10-28T07:27:19Z</time>
      </trkpt>
      <trkpt lat="44.33762" lon="3.48993">
        <ele>518.098</ele>
        <time>2019-10-28T07:27:49Z</time>
      </trkpt>
      <trkpt lat="44.33663" lon="3.48832">
        <ele>513.102</ele>
        <time>2019-10-28T07:28:19Z</time>
      </trkpt>
      <trkpt lat="44.33583" lon="3.48653">
        <ele>511.074</ele>
        <time>2019-10-28T07:28:49Z</time>
      </trkpt>
      <trkpt lat="44.33661" lon="3.48445">
        <ele>510.118</ele>
        <time>2019-10-28T07:29:22Z</time>
      </trkpt>
      <trkpt lat="44.3371" lon="3.48362">
        <ele>512.67</ele>
        <time>2019-10-28T07:30:49Z</time>
      </trkpt>
      <trkpt lat="44.33773" lon="3.48174">
        <ele>510.925</ele>
        <time>2019-10-28T07:31:19Z</time>
      </trkpt>
      <trkpt lat="44.33733" lon="3.48013">
        <ele>511.851</ele>
        <time>2019-10-28T07:31:49Z</time>
      </trkpt>
      <trkpt lat="44.337" lon="3.4785">
        <ele>516.908</ele>
        <time>2019-10-28T07:32:19Z</time>
      </trkpt>
      <trkpt lat="44.33696" lon="3.47704">
        <ele>517.344</ele>
        <time>2019-10-28T07:32:49Z</time>
      </trkpt>
      <trkpt lat="44.33768" lon="3.47622">
        <ele>521.201</ele>
        <time>2019-10-28T07:33:19Z</time>
      </trkpt>
      <trkpt lat="44.33836" lon="3.47554">
        <ele>523.62</ele>
        <time>2019-10-28T07:33:49Z</time>
      </trkpt>
      <trkpt lat="44.33873" lon="3.47463">
        <ele>524.581</ele>
        <time>2019-10-28T07:34:22Z</time>
      </trkpt>
      <trkpt lat="44.33929" lon="3.47394">
        <ele>527.311</ele>
        <time>2019-10-28T07:34:52Z</time>
      </trkpt>
      <trkpt lat="44.33975" lon="3.4731">
        <ele>533.387</ele>
        <time>2019-10-28T07:35:22Z</time>
      </trkpt>
      <trkpt lat="44.3404" lon="3.47252">
        <ele>532.477</ele>
        <time>2019-10-28T07:35:52Z</time>
      </trkpt>
      <trkpt lat="44.34111" lon="3.47212">
        <ele>537.559</ele>
        <time>2019-10-28T07:36:22Z</time>
      </trkpt>
      <trkpt lat="44.34122" lon="3.47112">
        <ele>542.396</ele>
        <time>2019-10-28T07:36:52Z</time>
      </trkpt>
      <trkpt lat="44.34114" lon="3.47009">
        <ele>544.969</ele>
        <time>2019-10-28T07:37:22Z</time>
      </trkpt>
      <trkpt lat="44.34114" lon="3.46907">
        <ele>548.503</ele>
        <time>2019-10-28T07:37:52Z</time>
      </trkpt>
      <trkpt lat="44.34111" lon="3.46803">
        <ele>552.957</ele>
        <time>2019-10-28T07:38:22Z</time>
      </trkpt>
      <trkpt lat="44.34108" lon="3.46693">
        <ele>559.232</ele>
        <time>2019-10-28T07:38:55Z</time>
      </trkpt>
      <trkpt lat="44.34168" lon="3.46657">
        <ele>562.967</ele>
        <time>2019-10-28T07:39:25Z</time>
      </trkpt>
      <trkpt lat="44.34208" lon="3.46652">
        <ele>561.295</ele>
        <time>2019-10-28T07:41:37Z</time>
      </trkpt>
      <trkpt lat="44.34268" lon="3.46615">
        <ele>566.448</ele>
        <time>2019-10-28T07:42:07Z</time>
      </trkpt>
      <trkpt lat="44.3433" lon="3.46617">
        <ele>568.887</ele>
        <time>2019-10-28T07:42:37Z</time>
      </trkpt>
      <trkpt lat="44.34429" lon="3.46607">
        <ele>567.733</ele>
        <time>2019-10-28T07:43:07Z</time>
      </trkpt>
      <trkpt lat="44.346" lon="3.46516">
        <ele>568.808</ele>
        <time>2019-10-28T07:43:37Z</time>
      </trkpt>
      <trkpt lat="44.34739" lon="3.46408">
        <ele>563.343</ele>
        <time>2019-10-28T07:44:07Z</time>
      </trkpt>
      <trkpt lat="44.34927" lon="3.46136">
        <ele>547.616</ele>
        <time>2019-10-28T07:44:40Z</time>
      </trkpt>
      <trkpt lat="44.35092" lon="3.45965">
        <ele>537.926</ele>
        <time>2019-10-28T07:45:10Z</time>
      </trkpt>
      <trkpt lat="44.35205" lon="3.4595">
        <ele>536.451</ele>
        <time>2019-10-28T07:45:40Z</time>
      </trkpt>
      <trkpt lat="44.35276" lon="3.45877">
        <ele>546.013</ele>
        <time>2019-10-28T07:46:10Z</time>
      </trkpt>
      <trkpt lat="44.35318" lon="3.45735">
        <ele>540.154</ele>
        <time>2019-10-28T07:46:40Z</time>
      </trkpt>
      <trkpt lat="44.35369" lon="3.45567">
        <ele>543.573</ele>
        <time>2019-10-28T07:47:10Z</time>
      </trkpt>
      <trkpt lat="44.35425" lon="3.45363">
        <ele>544.305</ele>
        <time>2019-10-28T07:47:40Z</time>
      </trkpt>
      <trkpt lat="44.3546" lon="3.45137">
        <ele>543.17</ele>
        <time>2019-10-28T07:48:10Z</time>
      </trkpt>
      <trkpt lat="44.35426" lon="3.44933">
        <ele>544.708</ele>
        <time>2019-10-28T07:48:40Z</time>
      </trkpt>
      <trkpt lat="44.35627" lon="3.44759">
        <ele>531.502</ele>
        <time>2019-10-28T07:49:13Z</time>
      </trkpt>
      <trkpt lat="44.35897" lon="3.44656">
        <ele>526.513</ele>
        <time>2019-10-28T07:49:43Z</time>
      </trkpt>
      <trkpt lat="44.35984" lon="3.4433">
        <ele>518.537</ele>
        <time>2019-10-28T07:50:13Z</time>
      </trkpt>
      <trkpt lat="44.35856" lon="3.44066">
        <ele>506.705</ele>
        <time>2019-10-28T07:50:43Z</time>
      </trkpt>
      <trkpt lat="44.35821" lon="3.43662">
        <ele>494.622</ele>
        <time>2019-10-28T07:51:13Z</time>
      </trkpt>
      <trkpt lat="44.36107" lon="3.43537">
        <ele>485.15</ele>
        <time>2019-10-28T07:51:43Z</time>
      </trkpt>
      <trkpt lat="44.36304" lon="3.43531">
        <ele>481.433</ele>
        <time>2019-10-28T07:52:13Z</time>
      </trkpt>
      <trkpt lat="44.36469" lon="3.43504">
        <ele>484.113</ele>
        <time>2019-10-28T07:52:43Z</time>
      </trkpt>
      <trkpt lat="44.36603" lon="3.43389">
        <ele>488.258</ele>
        <time>2019-10-28T07:53:13Z</time>
      </trkpt>
      <trkpt lat="44.36683" lon="3.4317">
        <ele>487.324</ele>
        <time>2019-10-28T07:53:46Z</time>
      </trkpt>
      <trkpt lat="44.36651" lon="3.42935">
        <ele>484.583</ele>
        <time>2019-10-28T07:54:16Z</time>
      </trkpt>
      <trkpt lat="44.36563" lon="3.42736">
        <ele>485.342</ele>
        <time>2019-10-28T07:54:46Z</time>
      </trkpt>
      <trkpt lat="44.36527" lon="3.42483">
        <ele>476.674</ele>
        <time>2019-10-28T07:55:16Z</time>
      </trkpt>
      <trkpt lat="44.36569" lon="3.42281">
        <ele>475.904</ele>
        <time>2019-10-28T07:55:46Z</time>
      </trkpt>
      <trkpt lat="44.3661" lon="3.42066">
        <ele>469.921</ele>
        <time>2019-10-28T07:56:16Z</time>
      </trkpt>
      <trkpt lat="44.36623" lon="3.41814">
        <ele>477.975</ele>
        <time>2019-10-28T07:56:46Z</time>
      </trkpt>
      <trkpt lat="44.36617" lon="3.41588">
        <ele>476.494</ele>
        <time>2019-10-28T07:57:16Z</time>
      </trkpt>
      <trkpt lat="44.36618" lon="3.41343">
        <ele>473.541</ele>
        <time>2019-10-28T07:57:49Z</time>
      </trkpt>
      <trkpt lat="44.36545" lon="3.41114">
        <ele>472.393</ele>
        <time>2019-10-28T07:58:19Z</time>
      </trkpt>
      <trkpt lat="44.36541" lon="3.40979">
        <ele>472.689</ele>
        <time>2019-10-28T07:58:49Z</time>
      </trkpt>
      <trkpt lat="44.36459" lon="3.40926">
        <ele>477.07</ele>
        <time>2019-10-28T07:59:19Z</time>
      </trkpt>
      <trkpt lat="44.363" lon="3.41048">
        <ele>460.584</ele>
        <time>2019-10-28T08:00:19Z</time>
      </trkpt>
      <trkpt lat="44.36272" lon="3.4117">
        <ele>459.963</ele>
        <time>2019-10-28T08:00:49Z</time>
      </trkpt>
      <trkpt lat="44.36192" lon="3.41101">
        <ele>476.775</ele>
        <time>2019-10-28T08:01:19Z</time>
      </trkpt>
      <trkpt lat="44.36115" lon="3.4092">
        <ele>481.495</ele>
        <time>2019-10-28T08:01:49Z</time>
      </trkpt>
      <trkpt lat="44.36012" lon="3.40712">
        <ele>480.055</ele>
        <time>2019-10-28T08:02:19Z</time>
      </trkpt>
      <trkpt lat="44.35858" lon="3.40488">
        <ele>474.953</ele>
        <time>2019-10-28T08:02:52Z</time>
      </trkpt>
      <trkpt lat="44.3566" lon="3.40425">
        <ele>471.169</ele>
        <time>2019-10-28T08:03:22Z</time>
      </trkpt>
      <trkpt lat="44.35543" lon="3.40398">
        <ele>470.319</ele>
        <time>2019-10-28T08:03:52Z</time>
      </trkpt>
      <trkpt lat="44.35444" lon="3.40321">
        <ele>470.716</ele>
        <time>2019-10-28T08:04:22Z</time>
      </trkpt>
      <trkpt lat="44.35385" lon="3.40199">
        <ele>475.094</ele>
        <time>2019-10-28T08:04:52Z</time>
      </trkpt>
      <trkpt lat="44.35324" lon="3.40084">
        <ele>479.828</ele>
        <time>2019-10-28T08:05:22Z</time>
      </trkpt>
      <trkpt lat="44.35271" lon="3.39943">
        <ele>476.813</ele>
        <time>2019-10-28T08:05:52Z</time>
      </trkpt>
      <trkpt lat="44.35218" lon="3.39794">
        <ele>481.018</ele>
        <time>2019-10-28T08:06:22Z</time>
      </trkpt>
      <trkpt lat="44.35153" lon="3.39664">
        <ele>485.39</ele>
        <time>2019-10-28T08:06:52Z</time>
      </trkpt>
      <trkpt lat="44.35057" lon="3.39575">
        <ele>482.756</ele>
        <time>2019-10-28T08:07:25Z</time>
      </trkpt>
      <trkpt lat="44.34949" lon="3.3957">
        <ele>482.732</ele>
        <time>2019-10-28T08:07:55Z</time>
      </trkpt>
      <trkpt lat="44.34811" lon="3.3957">
        <ele>480.777</ele>
        <time>2019-10-28T08:08:25Z</time>
      </trkpt>
      <trkpt lat="44.3466" lon="3.39556">
        <ele>482.109</ele>
        <time>2019-10-28T08:08:55Z</time>
      </trkpt>
      <trkpt lat="44.34561" lon="3.3942">
        <ele>478.218</ele>
        <time>2019-10-28T08:09:25Z</time>
      </trkpt>
      <trkpt lat="44.34556" lon="3.3923">
        <ele>479.151</ele>
        <time>2019-10-28T08:09:55Z</time>
      </trkpt>
      <trkpt lat="44.34577" lon="3.39045">
        <ele>481.204</ele>
        <time>2019-10-28T08:10:25Z</time>
      </trkpt>
      <trkpt lat="44.34481" lon="3.38924">
        <ele>489.391</ele>
        <time>2019-10-28T08:10:55Z</time>
      </trkpt>
      <trkpt lat="44.3432" lon="3.38865">
        <ele>486.318</ele>
        <time>2019-10-28T08:11:28Z</time>
      </trkpt>
      <trkpt lat="44.3417" lon="3.38675">
        <ele>477.933</ele>
        <time>2019-10-28T08:11:58Z</time>
      </trkpt>
      <trkpt lat="44.3402" lon="3.38479">
        <ele>475.901</ele>
        <time>2019-10-28T08:12:28Z</time>
      </trkpt>
      <trkpt lat="44.33951" lon="3.38347">
        <ele>472.42</ele>
        <time>2019-10-28T08:12:58Z</time>
      </trkpt>
      <trkpt lat="44.3388" lon="3.38246">
        <ele>479.634</ele>
        <time>2019-10-28T08:13:28Z</time>
      </trkpt>
      <trkpt lat="44.33799" lon="3.38179">
        <ele>481.559</ele>
        <time>2019-10-28T08:13:58Z</time>
      </trkpt>
      <trkpt lat="44.33706" lon="3.38163">
        <ele>475.531</ele>
        <time>2019-10-28T08:14:28Z</time>
      </trkpt>
      <trkpt lat="44.33628" lon="3.3823">
        <ele>476.426</ele>
        <time>2019-10-28T08:14:58Z</time>
      </trkpt>
      <trkpt lat="44.33562" lon="3.38175">
        <ele>478.804</ele>
        <time>2019-10-28T08:15:37Z</time>
      </trkpt>
      <trkpt lat="44.33712" lon="3.3804">
        <ele>482.724</ele>
        <time>2019-10-28T08:16:10Z</time>
      </trkpt>
      <trkpt lat="44.33869" lon="3.37857">
        <ele>475.224</ele>
        <time>2019-10-28T08:16:40Z</time>
      </trkpt>
      <trkpt lat="44.34004" lon="3.37618">
        <ele>470.846</ele>
        <time>2019-10-28T08:17:10Z</time>
      </trkpt>
      <trkpt lat="44.34166" lon="3.37436">
        <ele>466.859</ele>
        <time>2019-10-28T08:17:40Z</time>
      </trkpt>
      <trkpt lat="44.34296" lon="3.37227">
        <ele>463.596</ele>
        <time>2019-10-28T08:18:10Z</time>
      </trkpt>
      <trkpt lat="44.34314" lon="3.37012">
        <ele>461.002</ele>
        <time>2019-10-28T08:18:40Z</time>
      </trkpt>
      <trkpt lat="44.34288" lon="3.36812">
        <ele>466.852</ele>
        <time>2019-10-28T08:19:10Z</time>
      </trkpt>
      <trkpt lat="44.34198" lon="3.36635">
        <ele>471.131</ele>
        <time>2019-10-28T08:19:40Z</time>
      </trkpt>
      <trkpt lat="44.34105" lon="3.36507">
        <ele>478.244</ele>
        <time>2019-10-28T08:20:10Z</time>
      </trkpt>
      <trkpt lat="44.34037" lon="3.36412">
        <ele>478.726</ele>
        <time>2019-10-28T08:20:43Z</time>
      </trkpt>
      <trkpt lat="44.33992" lon="3.36326">
        <ele>481.032</ele>
        <time>2019-10-28T08:21:13Z</time>
      </trkpt>
      <trkpt lat="44.33938" lon="3.36264">
        <ele>482.114</ele>
        <time>2019-10-28T08:21:43Z</time>
      </trkpt>
      <trkpt lat="44.33915" lon="3.36176">
        <ele>483.894</ele>
        <time>2019-10-28T08:22:13Z</time>
      </trkpt>
      <trkpt lat="44.3386" lon="3.36128">
        <ele>481.185</ele>
        <time>2019-10-28T08:22:43Z</time>
      </trkpt>
      <trkpt lat="44.33789" lon="3.36127">
        <ele>488.243</ele>
        <time>2019-10-28T08:23:13Z</time>
      </trkpt>
      <trkpt lat="44.33713" lon="3.36208">
        <ele>493.255</ele>
        <time>2019-10-28T08:23:49Z</time>
      </trkpt>
      <trkpt lat="44.33586" lon="3.36164">
        <ele>491.489</ele>
        <time>2019-10-28T08:24:19Z</time>
      </trkpt>
      <trkpt lat="44.33585" lon="3.35843">
        <ele>461.795</ele>
        <time>2019-10-28T08:24:52Z</time>
      </trkpt>
      <trkpt lat="44.3349" lon="3.35693">
        <ele>477.042</ele>
        <time>2019-10-28T08:25:22Z</time>
      </trkpt>
      <trkpt lat="44.33379" lon="3.35568">
        <ele>471.519</ele>
        <time>2019-10-28T08:25:52Z</time>
      </trkpt>
      <trkpt lat="44.33247" lon="3.35492">
        <ele>475.288</ele>
        <time>2019-10-28T08:26:22Z</time>
      </trkpt>
      <trkpt lat="44.33122" lon="3.35442">
        <ele>474.936</ele>
        <time>2019-10-28T08:26:52Z</time>
      </trkpt>
      <trkpt lat="44.32997" lon="3.35378">
        <ele>472.735</ele>
        <time>2019-10-28T08:27:22Z</time>
      </trkpt>
      <trkpt lat="44.32932" lon="3.35213">
        <ele>471.269</ele>
        <time>2019-10-28T08:27:52Z</time>
      </trkpt>
      <trkpt lat="44.32872" lon="3.3503">
        <ele>467.485</ele>
        <time>2019-10-28T08:28:22Z</time>
      </trkpt>
      <trkpt lat="44.32818" lon="3.34856">
        <ele>469.537</ele>
        <time>2019-10-28T08:28:52Z</time>
      </trkpt>
      <trkpt lat="44.32707" lon="3.34729">
        <ele>473.168</ele>
        <time>2019-10-28T08:29:25Z</time>
      </trkpt>
      <trkpt lat="44.32599" lon="3.34627">
        <ele>467.527</ele>
        <time>2019-10-28T08:29:55Z</time>
      </trkpt>
      <trkpt lat="44.3247" lon="3.34577">
        <ele>467.91</ele>
        <time>2019-10-28T08:30:25Z</time>
      </trkpt>
      <trkpt lat="44.32342" lon="3.34516">
        <ele>469.289</ele>
        <time>2019-10-28T08:30:55Z</time>
      </trkpt>
      <trkpt lat="44.32183" lon="3.3456">
        <ele>477.078</ele>
        <time>2019-10-28T08:31:25Z</time>
      </trkpt>
      <trkpt lat="44.32026" lon="3.34612">
        <ele>485.707</ele>
        <time>2019-10-28T08:31:55Z</time>
      </trkpt>
      <trkpt lat="44.31857" lon="3.34598">
        <ele>466.798</ele>
        <time>2019-10-28T08:32:25Z</time>
      </trkpt>
      <trkpt lat="44.31724" lon="3.34457">
        <ele>463.633</ele>
        <time>2019-10-28T08:32:55Z</time>
      </trkpt>
      <trkpt lat="44.3166" lon="3.34163">
        <ele>460.304</ele>
        <time>2019-10-28T08:33:25Z</time>
      </trkpt>
      <trkpt lat="44.31535" lon="3.33879">
        <ele>458.795</ele>
        <time>2019-10-28T08:33:58Z</time>
      </trkpt>
      <trkpt lat="44.31379" lon="3.33775">
        <ele>459.903</ele>
        <time>2019-10-28T08:34:28Z</time>
      </trkpt>
      <trkpt lat="44.31247" lon="3.33629">
        <ele>449.045</ele>
        <time>2019-10-28T08:34:58Z</time>
      </trkpt>
      <trkpt lat="44.3114" lon="3.33456">
        <ele>445.673</ele>
        <time>2019-10-28T08:35:28Z</time>
      </trkpt>
      <trkpt lat="44.3105" lon="3.33282">
        <ele>445.55</ele>
        <time>2019-10-28T08:35:58Z</time>
      </trkpt>
      <trkpt lat="44.30998" lon="3.33218">
        <ele>444.158</ele>
        <time>2019-10-28T08:37:55Z</time>
      </trkpt>
      <trkpt lat="44.30981" lon="3.33209">
        <ele>437.725</ele>
        <time>2019-10-28T08:40:13Z</time>
      </trkpt>
      <trkpt lat="44.30915" lon="3.33106">
        <ele>457.955</ele>
        <time>2019-10-28T08:40:43Z</time>
      </trkpt>
      <trkpt lat="44.30816" lon="3.33036">
        <ele>466.164</ele>
        <time>2019-10-28T08:41:16Z</time>
      </trkpt>
      <trkpt lat="44.30696" lon="3.3293">
        <ele>455.852</ele>
        <time>2019-10-28T08:41:46Z</time>
      </trkpt>
      <trkpt lat="44.30585" lon="3.32772">
        <ele>460.085</ele>
        <time>2019-10-28T08:42:16Z</time>
      </trkpt>
      <trkpt lat="44.30477" lon="3.32605">
        <ele>459.423</ele>
        <time>2019-10-28T08:42:46Z</time>
      </trkpt>
      <trkpt lat="44.30364" lon="3.32449">
        <ele>460.049</ele>
        <time>2019-10-28T08:43:16Z</time>
      </trkpt>
      <trkpt lat="44.30244" lon="3.32299">
        <ele>464.614</ele>
        <time>2019-10-28T08:43:46Z</time>
      </trkpt>
      <trkpt lat="44.30132" lon="3.321">
        <ele>457.743</ele>
        <time>2019-10-28T08:44:16Z</time>
      </trkpt>
      <trkpt lat="44.30127" lon="3.3197">
        <ele>450.944</ele>
        <time>2019-10-28T08:44:49Z</time>
      </trkpt>
      <trkpt lat="44.30127" lon="3.31949">
        <ele>453.491</ele>
        <time>2019-10-28T08:45:46Z</time>
      </trkpt>
      <trkpt lat="44.30121" lon="3.31937">
        <ele>453.824</ele>
        <time>2019-10-28T09:02:34Z</time>
      </trkpt>
      <trkpt lat="44.30127" lon="3.31857">
        <ele>454.992</ele>
        <time>2019-10-28T09:03:07Z</time>
      </trkpt>
      <trkpt lat="44.30139" lon="3.3173">
        <ele>457.087</ele>
        <time>2019-10-28T09:03:37Z</time>
      </trkpt>
      <trkpt lat="44.30127" lon="3.31607">
        <ele>457.851</ele>
        <time>2019-10-28T09:04:07Z</time>
      </trkpt>
      <trkpt lat="44.30106" lon="3.3148">
        <ele>457.756</ele>
        <time>2019-10-28T09:04:37Z</time>
      </trkpt>
      <trkpt lat="44.30046" lon="3.31373">
        <ele>460.791</ele>
        <time>2019-10-28T09:05:07Z</time>
      </trkpt>
      <trkpt lat="44.30023" lon="3.31259">
        <ele>465.838</ele>
        <time>2019-10-28T09:05:37Z</time>
      </trkpt>
      <trkpt lat="44.30122" lon="3.31202">
        <ele>470.115</ele>
        <time>2019-10-28T09:06:07Z</time>
      </trkpt>
      <trkpt lat="44.30262" lon="3.31088">
        <ele>469.537</ele>
        <time>2019-10-28T09:06:40Z</time>
      </trkpt>
      <trkpt lat="44.30379" lon="3.30931">
        <ele>468.705</ele>
        <time>2019-10-28T09:07:10Z</time>
      </trkpt>
      <trkpt lat="44.30463" lon="3.30736">
        <ele>467.157</ele>
        <time>2019-10-28T09:07:40Z</time>
      </trkpt>
      <trkpt lat="44.3056" lon="3.30547">
        <ele>463.982</ele>
        <time>2019-10-28T09:08:10Z</time>
      </trkpt>
      <trkpt lat="44.30654" lon="3.30321">
        <ele>460.84</ele>
        <time>2019-10-28T09:08:40Z</time>
      </trkpt>
      <trkpt lat="44.30617" lon="3.29988">
        <ele>457.437</ele>
        <time>2019-10-28T09:09:10Z</time>
      </trkpt>
      <trkpt lat="44.3048" lon="3.29733">
        <ele>451.503</ele>
        <time>2019-10-28T09:09:40Z</time>
      </trkpt>
      <trkpt lat="44.30394" lon="3.29644">
        <ele>449.846</ele>
        <time>2019-10-28T09:10:10Z</time>
      </trkpt>
      <trkpt lat="44.30306" lon="3.29592">
        <ele>453.496</ele>
        <time>2019-10-28T09:10:40Z</time>
      </trkpt>
      <trkpt lat="44.30212" lon="3.29571">
        <ele>460.872</ele>
        <time>2019-10-28T09:11:13Z</time>
      </trkpt>
      <trkpt lat="44.30181" lon="3.29453">
        <ele>457.668</ele>
        <time>2019-10-28T09:11:43Z</time>
      </trkpt>
      <trkpt lat="44.3013" lon="3.2935">
        <ele>463.141</ele>
        <time>2019-10-28T09:12:13Z</time>
      </trkpt>
      <trkpt lat="44.30088" lon="3.2924">
        <ele>468.508</ele>
        <time>2019-10-28T09:12:43Z</time>
      </trkpt>
      <trkpt lat="44.30052" lon="3.29123">
        <ele>467.784</ele>
        <time>2019-10-28T09:13:13Z</time>
      </trkpt>
      <trkpt lat="44.29978" lon="3.29037">
        <ele>468.226</ele>
        <time>2019-10-28T09:13:43Z</time>
      </trkpt>
      <trkpt lat="44.29901" lon="3.28959">
        <ele>470.287</ele>
        <time>2019-10-28T09:14:13Z</time>
      </trkpt>
      <trkpt lat="44.29808" lon="3.28935">
        <ele>477.251</ele>
        <time>2019-10-28T09:14:43Z</time>
      </trkpt>
      <trkpt lat="44.29785" lon="3.28808">
        <ele>477.142</ele>
        <time>2019-10-28T09:15:13Z</time>
      </trkpt>
      <trkpt lat="44.29767" lon="3.28664">
        <ele>482.074</ele>
        <time>2019-10-28T09:15:46Z</time>
      </trkpt>
      <trkpt lat="44.29769" lon="3.28509">
        <ele>484.234</ele>
        <time>2019-10-28T09:16:16Z</time>
      </trkpt>
      <trkpt lat="44.29777" lon="3.28348">
        <ele>486.453</ele>
        <time>2019-10-28T09:16:46Z</time>
      </trkpt>
      <trkpt lat="44.29763" lon="3.28185">
        <ele>486.902</ele>
        <time>2019-10-28T09:17:16Z</time>
      </trkpt>
      <trkpt lat="44.29895" lon="3.27981">
        <ele>476.999</ele>
        <time>2019-10-28T09:17:46Z</time>
      </trkpt>
      <trkpt lat="44.29994" lon="3.27668">
        <ele>469.856</ele>
        <time>2019-10-28T09:18:16Z</time>
      </trkpt>
      <trkpt lat="44.30168" lon="3.27375">
        <ele>457.496</ele>
        <time>2019-10-28T09:18:46Z</time>
      </trkpt>
      <trkpt lat="44.30296" lon="3.27122">
        <ele>446.263</ele>
        <time>2019-10-28T09:19:16Z</time>
      </trkpt>
      <trkpt lat="44.30373" lon="3.26918">
        <ele>444.11</ele>
        <time>2019-10-28T09:19:49Z</time>
      </trkpt>
      <trkpt lat="44.30471" lon="3.26827">
        <ele>445.836</ele>
        <time>2019-10-28T09:20:19Z</time>
      </trkpt>
      <trkpt lat="44.30546" lon="3.26697">
        <ele>451.373</ele>
        <time>2019-10-28T09:20:49Z</time>
      </trkpt>
      <trkpt lat="44.30542" lon="3.2652">
        <ele>452.11</ele>
        <time>2019-10-28T09:21:19Z</time>
      </trkpt>
      <trkpt lat="44.30548" lon="3.26207">
        <ele>459.517</ele>
        <time>2019-10-28T09:21:49Z</time>
      </trkpt>
      <trkpt lat="44.3054" lon="3.25973">
        <ele>461.519</ele>
        <time>2019-10-28T09:22:19Z</time>
      </trkpt>
      <trkpt lat="44.3046" lon="3.25772">
        <ele>469.864</ele>
        <time>2019-10-28T09:22:49Z</time>
      </trkpt>
      <trkpt lat="44.30603" lon="3.25537">
        <ele>468.942</ele>
        <time>2019-10-28T09:23:19Z</time>
      </trkpt>
      <trkpt lat="44.30698" lon="3.25399">
        <ele>447.2</ele>
        <time>2019-10-28T09:23:49Z</time>
      </trkpt>
      <trkpt lat="44.30777" lon="3.25229">
        <ele>444.784</ele>
        <time>2019-10-28T09:24:22Z</time>
      </trkpt>
      <trkpt lat="44.30819" lon="3.25004">
        <ele>444.701</ele>
        <time>2019-10-28T09:24:52Z</time>
      </trkpt>
      <trkpt lat="44.30812" lon="3.24833">
        <ele>439.924</ele>
        <time>2019-10-28T09:25:22Z</time>
      </trkpt>
      <trkpt lat="44.3076" lon="3.24647">
        <ele>444.007</ele>
        <time>2019-10-28T09:25:52Z</time>
      </trkpt>
      <trkpt lat="44.30651" lon="3.24497">
        <ele>445.949</ele>
        <time>2019-10-28T09:26:22Z</time>
      </trkpt>
      <trkpt lat="44.30516" lon="3.24409">
        <ele>456.52</ele>
        <time>2019-10-28T09:26:52Z</time>
      </trkpt>
      <trkpt lat="44.30436" lon="3.24237">
        <ele>450.445</ele>
        <time>2019-10-28T09:27:22Z</time>
      </trkpt>
      <trkpt lat="44.30428" lon="3.24031">
        <ele>448.752</ele>
        <time>2019-10-28T09:27:52Z</time>
      </trkpt>
      <trkpt lat="44.30363" lon="3.23866">
        <ele>442.093</ele>
        <time>2019-10-28T09:28:22Z</time>
      </trkpt>
      <trkpt lat="44.3023" lon="3.23804">
        <ele>449.213</ele>
        <time>2019-10-28T09:28:55Z</time>
      </trkpt>
      <trkpt lat="44.30081" lon="3.23837">
        <ele>445.12</ele>
        <time>2019-10-28T09:29:25Z</time>
      </trkpt>
      <trkpt lat="44.29918" lon="3.23864">
        <ele>443.515</ele>
        <time>2019-10-28T09:29:55Z</time>
      </trkpt>
      <trkpt lat="44.29746" lon="3.23858">
        <ele>442.704</ele>
        <time>2019-10-28T09:30:25Z</time>
      </trkpt>
      <trkpt lat="44.29582" lon="3.2382">
        <ele>440.591</ele>
        <time>2019-10-28T09:30:55Z</time>
      </trkpt>
      <trkpt lat="44.29439" lon="3.23715">
        <ele>440.238</ele>
        <time>2019-10-28T09:31:25Z</time>
      </trkpt>
      <trkpt lat="44.29294" lon="3.23703">
        <ele>442.03</ele>
        <time>2019-10-28T09:31:55Z</time>
      </trkpt>
      <trkpt lat="44.29133" lon="3.2374">
        <ele>437.843</ele>
        <time>2019-10-28T09:32:25Z</time>
      </trkpt>
      <trkpt lat="44.29039" lon="3.23782">
        <ele>440.897</ele>
        <time>2019-10-28T09:33:37Z</time>
      </trkpt>
      <trkpt lat="44.29045" lon="3.23775">
        <ele>445.968</ele>
        <time>2019-10-28T09:34:31Z</time>
      </trkpt>
      <trkpt lat="44.29039" lon="3.23789">
        <ele>443.052</ele>
        <time>2019-10-28T09:35:07Z</time>
      </trkpt>
      <trkpt lat="44.2904" lon="3.23801">
        <ele>444.891</ele>
        <time>2019-10-28T09:36:16Z</time>
      </trkpt>
      <trkpt lat="44.29044" lon="3.23804">
        <ele>447.696</ele>
        <time>2019-10-28T09:38:16Z</time>
      </trkpt>
      <trkpt lat="44.29032" lon="3.2378">
        <ele>451.572</ele>
        <time>2019-10-28T09:39:58Z</time>
      </trkpt>
      <trkpt lat="44.29037" lon="3.23781">
        <ele>453.23</ele>
        <time>2019-10-28T09:42:16Z</time>
      </trkpt>
      <trkpt lat="44.28957" lon="3.23728">
        <ele>450.61</ele>
        <time>2019-10-28T09:43:22Z</time>
      </trkpt>
      <trkpt lat="44.28767" lon="3.23557">
        <ele>438.888</ele>
        <time>2019-10-28T09:43:52Z</time>
      </trkpt>
      <trkpt lat="44.28558" lon="3.23278">
        <ele>419.798</ele>
        <time>2019-10-28T09:44:25Z</time>
      </trkpt>
      <trkpt lat="44.28381" lon="3.23136">
        <ele>413.918</ele>
        <time>2019-10-28T09:44:55Z</time>
      </trkpt>
      <trkpt lat="44.28267" lon="3.22997">
        <ele>416.481</ele>
        <time>2019-10-28T09:45:25Z</time>
      </trkpt>
      <trkpt lat="44.28131" lon="3.22945">
        <ele>421.586</ele>
        <time>2019-10-28T09:45:55Z</time>
      </trkpt>
      <trkpt lat="44.28058" lon="3.22894">
        <ele>422.586</ele>
        <time>2019-10-28T09:53:52Z</time>
      </trkpt>
      <trkpt lat="44.27957" lon="3.22885">
        <ele>425.919</ele>
        <time>2019-10-28T09:54:25Z</time>
      </trkpt>
      <trkpt lat="44.27821" lon="3.22798">
        <ele>423.068</ele>
        <time>2019-10-28T09:54:55Z</time>
      </trkpt>
      <trkpt lat="44.27729" lon="3.22689">
        <ele>419.724</ele>
        <time>2019-10-28T09:55:25Z</time>
      </trkpt>
      <trkpt lat="44.27698" lon="3.22617">
        <ele>424.862</ele>
        <time>2019-10-28T09:55:58Z</time>
      </trkpt>
      <trkpt lat="44.27743" lon="3.22672">
        <ele>433.831</ele>
        <time>2019-10-28T09:56:37Z</time>
      </trkpt>
      <trkpt lat="44.27802" lon="3.22703">
        <ele>440.142</ele>
        <time>2019-10-28T09:57:16Z</time>
      </trkpt>
      <trkpt lat="44.27855" lon="3.22721">
        <ele>442.368</ele>
        <time>2019-10-28T09:57:49Z</time>
      </trkpt>
      <trkpt lat="44.27899" lon="3.22755">
        <ele>448.163</ele>
        <time>2019-10-28T09:58:19Z</time>
      </trkpt>
      <trkpt lat="44.27949" lon="3.22793">
        <ele>455.941</ele>
        <time>2019-10-28T09:58:55Z</time>
      </trkpt>
      <trkpt lat="44.28008" lon="3.22809">
        <ele>461.732</ele>
        <time>2019-10-28T09:59:34Z</time>
      </trkpt>
      <trkpt lat="44.28066" lon="3.22815">
        <ele>467.298</ele>
        <time>2019-10-28T10:00:13Z</time>
      </trkpt>
      <trkpt lat="44.2812" lon="3.22777">
        <ele>475.303</ele>
        <time>2019-10-28T10:00:55Z</time>
      </trkpt>
      <trkpt lat="44.28182" lon="3.22735">
        <ele>480.968</ele>
        <time>2019-10-28T10:01:40Z</time>
      </trkpt>
      <trkpt lat="44.28231" lon="3.22693">
        <ele>486.638</ele>
        <time>2019-10-28T10:02:19Z</time>
      </trkpt>
      <trkpt lat="44.28285" lon="3.22681">
        <ele>489.506</ele>
        <time>2019-10-28T10:02:52Z</time>
      </trkpt>
      <trkpt lat="44.28339" lon="3.2266">
        <ele>491.392</ele>
        <time>2019-10-28T10:03:28Z</time>
      </trkpt>
      <trkpt lat="44.28285" lon="3.22657">
        <ele>496.833</ele>
        <time>2019-10-28T10:03:58Z</time>
      </trkpt>
      <trkpt lat="44.28235" lon="3.22656">
        <ele>499.038</ele>
        <time>2019-10-28T10:04:28Z</time>
      </trkpt>
      <trkpt lat="44.28171" lon="3.22682">
        <ele>507.502</ele>
        <time>2019-10-28T10:05:10Z</time>
      </trkpt>
      <trkpt lat="44.2811" lon="3.2268">
        <ele>513.818</ele>
        <time>2019-10-28T10:05:49Z</time>
      </trkpt>
      <trkpt lat="44.28053" lon="3.22669">
        <ele>516.58</ele>
        <time>2019-10-28T10:06:25Z</time>
      </trkpt>
      <trkpt lat="44.27987" lon="3.22614">
        <ele>526.054</ele>
        <time>2019-10-28T10:07:13Z</time>
      </trkpt>
      <trkpt lat="44.27939" lon="3.22572">
        <ele>527.653</ele>
        <time>2019-10-28T10:07:49Z</time>
      </trkpt>
      <trkpt lat="44.27942" lon="3.22549">
        <ele>537.034</ele>
        <time>2019-10-28T10:08:28Z</time>
      </trkpt>
      <trkpt lat="44.27988" lon="3.22586">
        <ele>537.24</ele>
        <time>2019-10-28T10:09:01Z</time>
      </trkpt>
      <trkpt lat="44.28043" lon="3.22601">
        <ele>542.083</ele>
        <time>2019-10-28T10:09:37Z</time>
      </trkpt>
      <trkpt lat="44.28099" lon="3.22599">
        <ele>546.856</ele>
        <time>2019-10-28T10:10:13Z</time>
      </trkpt>
      <trkpt lat="44.28153" lon="3.22581">
        <ele>549.78</ele>
        <time>2019-10-28T10:10:49Z</time>
      </trkpt>
      <trkpt lat="44.28208" lon="3.22557">
        <ele>554.38</ele>
        <time>2019-10-28T10:11:25Z</time>
      </trkpt>
      <trkpt lat="44.28281" lon="3.2254">
        <ele>563.625</ele>
        <time>2019-10-28T10:12:13Z</time>
      </trkpt>
      <trkpt lat="44.28333" lon="3.22526">
        <ele>569.59</ele>
        <time>2019-10-28T10:12:46Z</time>
      </trkpt>
      <trkpt lat="44.28386" lon="3.22486">
        <ele>576.298</ele>
        <time>2019-10-28T10:13:25Z</time>
      </trkpt>
      <trkpt lat="44.28442" lon="3.22435">
        <ele>580.484</ele>
        <time>2019-10-28T10:14:10Z</time>
      </trkpt>
      <trkpt lat="44.28468" lon="3.22404">
        <ele>580.462</ele>
        <time>2019-10-28T10:19:19Z</time>
      </trkpt>
      <trkpt lat="44.28435" lon="3.22424">
        <ele>584.446</ele>
        <time>2019-10-28T10:19:52Z</time>
      </trkpt>
      <trkpt lat="44.28377" lon="3.22456">
        <ele>582.919</ele>
        <time>2019-10-28T10:20:22Z</time>
      </trkpt>
      <trkpt lat="44.28318" lon="3.22466">
        <ele>592.075</ele>
        <time>2019-10-28T10:20:58Z</time>
      </trkpt>
      <trkpt lat="44.28262" lon="3.22451">
        <ele>599.255</ele>
        <time>2019-10-28T10:21:34Z</time>
      </trkpt>
      <trkpt lat="44.28206" lon="3.22448">
        <ele>604.468</ele>
        <time>2019-10-28T10:22:07Z</time>
      </trkpt>
      <trkpt lat="44.28151" lon="3.22445">
        <ele>613.201</ele>
        <time>2019-10-28T10:22:43Z</time>
      </trkpt>
      <trkpt lat="44.28103" lon="3.22424">
        <ele>613.62</ele>
        <time>2019-10-28T10:23:13Z</time>
      </trkpt>
      <trkpt lat="44.28049" lon="3.22396">
        <ele>617.016</ele>
        <time>2019-10-28T10:23:49Z</time>
      </trkpt>
      <trkpt lat="44.28004" lon="3.22365">
        <ele>622.643</ele>
        <time>2019-10-28T10:24:22Z</time>
      </trkpt>
      <trkpt lat="44.27951" lon="3.2233">
        <ele>626.774</ele>
        <time>2019-10-28T10:25:01Z</time>
      </trkpt>
      <trkpt lat="44.27894" lon="3.22291">
        <ele>636.422</ele>
        <time>2019-10-28T10:25:46Z</time>
      </trkpt>
      <trkpt lat="44.27825" lon="3.22282">
        <ele>642.387</ele>
        <time>2019-10-28T10:26:34Z</time>
      </trkpt>
      <trkpt lat="44.27837" lon="3.22239">
        <ele>650.071</ele>
        <time>2019-10-28T10:27:22Z</time>
      </trkpt>
      <trkpt lat="44.2791" lon="3.22243">
        <ele>660.64</ele>
        <time>2019-10-28T10:28:16Z</time>
      </trkpt>
      <trkpt lat="44.27964" lon="3.22253">
        <ele>664.458</ele>
        <time>2019-10-28T10:28:49Z</time>
      </trkpt>
      <trkpt lat="44.2802" lon="3.2225">
        <ele>668.691</ele>
        <time>2019-10-28T10:29:25Z</time>
      </trkpt>
      <trkpt lat="44.28074" lon="3.22265">
        <ele>675.871</ele>
        <time>2019-10-28T10:30:01Z</time>
      </trkpt>
      <trkpt lat="44.28129" lon="3.22276">
        <ele>682.589</ele>
        <time>2019-10-28T10:30:37Z</time>
      </trkpt>
      <trkpt lat="44.28182" lon="3.22257">
        <ele>683.271</ele>
        <time>2019-10-28T10:31:13Z</time>
      </trkpt>
      <trkpt lat="44.28243" lon="3.22225">
        <ele>689.615</ele>
        <time>2019-10-28T10:31:58Z</time>
      </trkpt>
      <trkpt lat="44.2829" lon="3.22165">
        <ele>698.369</ele>
        <time>2019-10-28T10:32:40Z</time>
      </trkpt>
      <trkpt lat="44.28331" lon="3.22097">
        <ele>705.384</ele>
        <time>2019-10-28T10:33:22Z</time>
      </trkpt>
      <trkpt lat="44.28318" lon="3.22073">
        <ele>705.318</ele>
        <time>2019-10-28T10:34:01Z</time>
      </trkpt>
      <trkpt lat="44.28274" lon="3.22114">
        <ele>703.613</ele>
        <time>2019-10-28T10:34:34Z</time>
      </trkpt>
      <trkpt lat="44.28213" lon="3.22139">
        <ele>709.444</ele>
        <time>2019-10-28T10:35:16Z</time>
      </trkpt>
      <trkpt lat="44.28162" lon="3.22131">
        <ele>714.221</ele>
        <time>2019-10-28T10:35:52Z</time>
      </trkpt>
      <trkpt lat="44.28101" lon="3.22116">
        <ele>720.138</ele>
        <time>2019-10-28T10:36:34Z</time>
      </trkpt>
      <trkpt lat="44.2803" lon="3.22078">
        <ele>730.484</ele>
        <time>2019-10-28T10:37:28Z</time>
      </trkpt>
      <trkpt lat="44.2797" lon="3.22051">
        <ele>735.589</ele>
        <time>2019-10-28T10:38:10Z</time>
      </trkpt>
      <trkpt lat="44.27897" lon="3.22034">
        <ele>746.268</ele>
        <time>2019-10-28T10:39:01Z</time>
      </trkpt>
      <trkpt lat="44.27835" lon="3.22012">
        <ele>751.496</ele>
        <time>2019-10-28T10:39:43Z</time>
      </trkpt>
      <trkpt lat="44.27779" lon="3.22003">
        <ele>749.247</ele>
        <time>2019-10-28T10:40:19Z</time>
      </trkpt>
      <trkpt lat="44.27765" lon="3.21979">
        <ele>752.957</ele>
        <time>2019-10-28T10:40:52Z</time>
      </trkpt>
      <trkpt lat="44.27816" lon="3.21992">
        <ele>759.315</ele>
        <time>2019-10-28T10:41:22Z</time>
      </trkpt>
      <trkpt lat="44.27871" lon="3.21981">
        <ele>761.598</ele>
        <time>2019-10-28T10:41:58Z</time>
      </trkpt>
      <trkpt lat="44.27938" lon="3.21982">
        <ele>773.595</ele>
        <time>2019-10-28T10:42:40Z</time>
      </trkpt>
      <trkpt lat="44.27995" lon="3.21985">
        <ele>772.583</ele>
        <time>2019-10-28T10:43:10Z</time>
      </trkpt>
      <trkpt lat="44.28055" lon="3.21983">
        <ele>777.191</ele>
        <time>2019-10-28T10:43:40Z</time>
      </trkpt>
      <trkpt lat="44.28115" lon="3.21967">
        <ele>774.365</ele>
        <time>2019-10-28T10:44:10Z</time>
      </trkpt>
      <trkpt lat="44.28172" lon="3.21953">
        <ele>779.686</ele>
        <time>2019-10-28T10:44:43Z</time>
      </trkpt>
      <trkpt lat="44.28232" lon="3.2194">
        <ele>780.758</ele>
        <time>2019-10-28T10:45:13Z</time>
      </trkpt>
      <trkpt lat="44.28271" lon="3.21891">
        <ele>788.832</ele>
        <time>2019-10-28T10:45:43Z</time>
      </trkpt>
      <trkpt lat="44.28261" lon="3.21855">
        <ele>787.939</ele>
        <time>2019-10-28T10:46:13Z</time>
      </trkpt>
      <trkpt lat="44.28217" lon="3.21915">
        <ele>788.508</ele>
        <time>2019-10-28T10:46:46Z</time>
      </trkpt>
      <trkpt lat="44.28165" lon="3.21922">
        <ele>788.804</ele>
        <time>2019-10-28T10:47:16Z</time>
      </trkpt>
      <trkpt lat="44.28106" lon="3.21931">
        <ele>792.297</ele>
        <time>2019-10-28T10:47:52Z</time>
      </trkpt>
      <trkpt lat="44.2805" lon="3.21926">
        <ele>793.124</ele>
        <time>2019-10-28T10:48:28Z</time>
      </trkpt>
      <trkpt lat="44.27995" lon="3.21913">
        <ele>799.682</ele>
        <time>2019-10-28T10:49:01Z</time>
      </trkpt>
      <trkpt lat="44.27941" lon="3.21892">
        <ele>805.625</ele>
        <time>2019-10-28T10:49:34Z</time>
      </trkpt>
      <trkpt lat="44.27892" lon="3.21866">
        <ele>809.615</ele>
        <time>2019-10-28T10:50:04Z</time>
      </trkpt>
      <trkpt lat="44.27839" lon="3.21858">
        <ele>812.475</ele>
        <time>2019-10-28T10:50:34Z</time>
      </trkpt>
      <trkpt lat="44.27788" lon="3.21857">
        <ele>814.678</ele>
        <time>2019-10-28T10:51:04Z</time>
      </trkpt>
      <trkpt lat="44.2773" lon="3.21852">
        <ele>818.84</ele>
        <time>2019-10-28T10:51:37Z</time>
      </trkpt>
      <trkpt lat="44.27684" lon="3.21823">
        <ele>825.026</ele>
        <time>2019-10-28T10:52:07Z</time>
      </trkpt>
      <trkpt lat="44.27634" lon="3.21779">
        <ele>830.828</ele>
        <time>2019-10-28T10:52:43Z</time>
      </trkpt>
      <trkpt lat="44.27596" lon="3.21731">
        <ele>835.352</ele>
        <time>2019-10-28T10:53:13Z</time>
      </trkpt>
      <trkpt lat="44.27545" lon="3.21686">
        <ele>836.241</ele>
        <time>2019-10-28T10:53:49Z</time>
      </trkpt>
      <trkpt lat="44.27498" lon="3.21655">
        <ele>838.944</ele>
        <time>2019-10-28T10:54:19Z</time>
      </trkpt>
      <trkpt lat="44.27451" lon="3.2162">
        <ele>844.007</ele>
        <time>2019-10-28T10:54:49Z</time>
      </trkpt>
      <trkpt lat="44.2741" lon="3.21572">
        <ele>844.963</ele>
        <time>2019-10-28T10:55:19Z</time>
      </trkpt>
      <trkpt lat="44.27358" lon="3.21548">
        <ele>849.762</ele>
        <time>2019-10-28T10:55:49Z</time>
      </trkpt>
      <trkpt lat="44.27303" lon="3.21524">
        <ele>854.811</ele>
        <time>2019-10-28T10:56:22Z</time>
      </trkpt>
      <trkpt lat="44.27272" lon="3.21475">
        <ele>847.909</ele>
        <time>2019-10-28T10:56:52Z</time>
      </trkpt>
      <trkpt lat="44.27273" lon="3.21395">
        <ele>850.177</ele>
        <time>2019-10-28T10:57:25Z</time>
      </trkpt>
      <trkpt lat="44.2725" lon="3.21324">
        <ele>860.374</ele>
        <time>2019-10-28T10:57:55Z</time>
      </trkpt>
      <trkpt lat="44.27288" lon="3.2125">
        <ele>875.642</ele>
        <time>2019-10-28T10:58:37Z</time>
      </trkpt>
      <trkpt lat="44.27335" lon="3.21206">
        <ele>882.793</ele>
        <time>2019-10-28T10:59:07Z</time>
      </trkpt>
      <trkpt lat="44.27376" lon="3.21158">
        <ele>882.125</ele>
        <time>2019-10-28T10:59:37Z</time>
      </trkpt>
      <trkpt lat="44.27426" lon="3.21153">
        <ele>880.972</ele>
        <time>2019-10-28T11:00:07Z</time>
      </trkpt>
      <trkpt lat="44.27485" lon="3.21127">
        <ele>883.114</ele>
        <time>2019-10-28T11:00:37Z</time>
      </trkpt>
      <trkpt lat="44.27533" lon="3.21087">
        <ele>889.85</ele>
        <time>2019-10-28T11:01:07Z</time>
      </trkpt>
      <trkpt lat="44.27577" lon="3.21039">
        <ele>897.333</ele>
        <time>2019-10-28T11:01:40Z</time>
      </trkpt>
      <trkpt lat="44.27632" lon="3.21013">
        <ele>898.228</ele>
        <time>2019-10-28T11:02:10Z</time>
      </trkpt>
      <trkpt lat="44.27691" lon="3.20985">
        <ele>905.174</ele>
        <time>2019-10-28T11:02:46Z</time>
      </trkpt>
      <trkpt lat="44.27742" lon="3.20958">
        <ele>908.163</ele>
        <time>2019-10-28T11:03:16Z</time>
      </trkpt>
      <trkpt lat="44.27789" lon="3.2092">
        <ele>907.063</ele>
        <time>2019-10-28T11:03:46Z</time>
      </trkpt>
      <trkpt lat="44.27836" lon="3.20872">
        <ele>908.188</ele>
        <time>2019-10-28T11:04:19Z</time>
      </trkpt>
      <trkpt lat="44.27864" lon="3.20855">
        <ele>908.071</ele>
        <time>2019-10-28T11:06:07Z</time>
      </trkpt>
      <trkpt lat="44.27969" lon="3.2086">
        <ele>905.985</ele>
        <time>2019-10-28T11:06:37Z</time>
      </trkpt>
      <trkpt lat="44.28127" lon="3.20871">
        <ele>900.494</ele>
        <time>2019-10-28T11:07:07Z</time>
      </trkpt>
      <trkpt lat="44.28283" lon="3.2076">
        <ele>895.541</ele>
        <time>2019-10-28T11:07:37Z</time>
      </trkpt>
      <trkpt lat="44.28319" lon="3.20561">
        <ele>888.873</ele>
        <time>2019-10-28T11:08:07Z</time>
      </trkpt>
      <trkpt lat="44.28302" lon="3.20336">
        <ele>886.794</ele>
        <time>2019-10-28T11:08:40Z</time>
      </trkpt>
      <trkpt lat="44.28311" lon="3.20112">
        <ele>883.854</ele>
        <time>2019-10-28T11:09:10Z</time>
      </trkpt>
      <trkpt lat="44.2849" lon="3.20269">
        <ele>885.385</ele>
        <time>2019-10-28T11:09:40Z</time>
      </trkpt>
      <trkpt lat="44.28801" lon="3.20276">
        <ele>872.824</ele>
        <time>2019-10-28T11:10:10Z</time>
      </trkpt>
      <trkpt lat="44.29037" lon="3.20048">
        <ele>852.593</ele>
        <time>2019-10-28T11:10:40Z</time>
      </trkpt>
      <trkpt lat="44.29141" lon="3.19913">
        <ele>854.212</ele>
        <time>2019-10-28T11:11:10Z</time>
      </trkpt>
      <trkpt lat="44.29261" lon="3.19791">
        <ele>856.17</ele>
        <time>2019-10-28T11:11:40Z</time>
      </trkpt>
      <trkpt lat="44.29342" lon="3.19658">
        <ele>861.068</ele>
        <time>2019-10-28T11:12:10Z</time>
      </trkpt>
      <trkpt lat="44.29467" lon="3.19554">
        <ele>863.511</ele>
        <time>2019-10-28T11:12:40Z</time>
      </trkpt>
      <trkpt lat="44.29625" lon="3.19528">
        <ele>857.642</ele>
        <time>2019-10-28T11:13:13Z</time>
      </trkpt>
      <trkpt lat="44.2976" lon="3.19485">
        <ele>857.683</ele>
        <time>2019-10-28T11:13:43Z</time>
      </trkpt>
      <trkpt lat="44.2981" lon="3.19403">
        <ele>863.531</ele>
        <time>2019-10-28T11:14:13Z</time>
      </trkpt>
      <trkpt lat="44.29858" lon="3.19323">
        <ele>867.675</ele>
        <time>2019-10-28T11:14:43Z</time>
      </trkpt>
      <trkpt lat="44.29866" lon="3.19228">
        <ele>869.899</ele>
        <time>2019-10-28T11:15:13Z</time>
      </trkpt>
      <trkpt lat="44.29846" lon="3.19138">
        <ele>875.506</ele>
        <time>2019-10-28T11:15:43Z</time>
      </trkpt>
      <trkpt lat="44.29818" lon="3.19051">
        <ele>877.657</ele>
        <time>2019-10-28T11:16:13Z</time>
      </trkpt>
      <trkpt lat="44.29795" lon="3.18958">
        <ele>878.543</ele>
        <time>2019-10-28T11:16:43Z</time>
      </trkpt>
      <trkpt lat="44.29832" lon="3.18868">
        <ele>884.181</ele>
        <time>2019-10-28T11:17:16Z</time>
      </trkpt>
      <trkpt lat="44.29968" lon="3.18836">
        <ele>882.806</ele>
        <time>2019-10-28T11:17:46Z</time>
      </trkpt>
      <trkpt lat="44.3012" lon="3.18827">
        <ele>880.377</ele>
        <time>2019-10-28T11:18:16Z</time>
      </trkpt>
      <trkpt lat="44.30231" lon="3.187">
        <ele>870.322</ele>
        <time>2019-10-28T11:18:46Z</time>
      </trkpt>
      <trkpt lat="44.30273" lon="3.1848">
        <ele>871.226</ele>
        <time>2019-10-28T11:19:16Z</time>
      </trkpt>
      <trkpt lat="44.30401" lon="3.18222">
        <ele>863.259</ele>
        <time>2019-10-28T11:19:46Z</time>
      </trkpt>
      <trkpt lat="44.30608" lon="3.18044">
        <ele>863.629</ele>
        <time>2019-10-28T11:20:16Z</time>
      </trkpt>
      <trkpt lat="44.30698" lon="3.18003">
        <ele>867.846</ele>
        <time>2019-10-28T11:20:46Z</time>
      </trkpt>
      <trkpt lat="44.30728" lon="3.17867">
        <ele>863.845</ele>
        <time>2019-10-28T11:21:16Z</time>
      </trkpt>
      <trkpt lat="44.30832" lon="3.17665">
        <ele>860.43</ele>
        <time>2019-10-28T11:21:49Z</time>
      </trkpt>
      <trkpt lat="44.30846" lon="3.17501">
        <ele>862.959</ele>
        <time>2019-10-28T11:22:19Z</time>
      </trkpt>
      <trkpt lat="44.30826" lon="3.17385">
        <ele>869.542</ele>
        <time>2019-10-28T11:22:49Z</time>
      </trkpt>
      <trkpt lat="44.30768" lon="3.17157">
        <ele>866.742</ele>
        <time>2019-10-28T11:23:19Z</time>
      </trkpt>
      <trkpt lat="44.30753" lon="3.16892">
        <ele>858.928</ele>
        <time>2019-10-28T11:23:49Z</time>
      </trkpt>
      <trkpt lat="44.30713" lon="3.16626">
        <ele>855.606</ele>
        <time>2019-10-28T11:24:19Z</time>
      </trkpt>
      <trkpt lat="44.30633" lon="3.16327">
        <ele>850.63</ele>
        <time>2019-10-28T11:24:49Z</time>
      </trkpt>
      <trkpt lat="44.30674" lon="3.16045">
        <ele>847.106</ele>
        <time>2019-10-28T11:25:19Z</time>
      </trkpt>
      <trkpt lat="44.30701" lon="3.15756">
        <ele>844.255</ele>
        <time>2019-10-28T11:25:52Z</time>
      </trkpt>
      <trkpt lat="44.30714" lon="3.15531">
        <ele>845.391</ele>
        <time>2019-10-28T11:26:22Z</time>
      </trkpt>
      <trkpt lat="44.30734" lon="3.15339">
        <ele>848.737</ele>
        <time>2019-10-28T11:26:52Z</time>
      </trkpt>
      <trkpt lat="44.30752" lon="3.15176">
        <ele>850.457</ele>
        <time>2019-10-28T11:27:22Z</time>
      </trkpt>
      <trkpt lat="44.30785" lon="3.15032">
        <ele>850.191</ele>
        <time>2019-10-28T11:27:52Z</time>
      </trkpt>
      <trkpt lat="44.30829" lon="3.14852">
        <ele>848.143</ele>
        <time>2019-10-28T11:28:22Z</time>
      </trkpt>
      <trkpt lat="44.30856" lon="3.14671">
        <ele>848.684</ele>
        <time>2019-10-28T11:28:52Z</time>
      </trkpt>
      <trkpt lat="44.30875" lon="3.14466">
        <ele>853.149</ele>
        <time>2019-10-28T11:29:22Z</time>
      </trkpt>
      <trkpt lat="44.30932" lon="3.14208">
        <ele>853.055</ele>
        <time>2019-10-28T11:29:52Z</time>
      </trkpt>
      <trkpt lat="44.30993" lon="3.13988">
        <ele>856.349</ele>
        <time>2019-10-28T11:30:25Z</time>
      </trkpt>
      <trkpt lat="44.31087" lon="3.1381">
        <ele>855.775</ele>
        <time>2019-10-28T11:30:55Z</time>
      </trkpt>
      <trkpt lat="44.31138" lon="3.13642">
        <ele>853.316</ele>
        <time>2019-10-28T11:31:25Z</time>
      </trkpt>
      <trkpt lat="44.31197" lon="3.13306">
        <ele>841.212</ele>
        <time>2019-10-28T11:31:55Z</time>
      </trkpt>
      <trkpt lat="44.31245" lon="3.12746">
        <ele>823.067</ele>
        <time>2019-10-28T11:32:25Z</time>
      </trkpt>
      <trkpt lat="44.3132" lon="3.12383">
        <ele>810.857</ele>
        <time>2019-10-28T11:32:55Z</time>
      </trkpt>
      <trkpt lat="44.31376" lon="3.12123">
        <ele>800.83</ele>
        <time>2019-10-28T11:33:25Z</time>
      </trkpt>
      <trkpt lat="44.31409" lon="3.11832">
        <ele>801.471</ele>
        <time>2019-10-28T11:33:55Z</time>
      </trkpt>
      <trkpt lat="44.31407" lon="3.11498">
        <ele>792.301</ele>
        <time>2019-10-28T11:34:25Z</time>
      </trkpt>
      <trkpt lat="44.31546" lon="3.11065">
        <ele>782.999</ele>
        <time>2019-10-28T11:34:58Z</time>
      </trkpt>
      <trkpt lat="44.31475" lon="3.10665">
        <ele>768.571</ele>
        <time>2019-10-28T11:35:28Z</time>
      </trkpt>
      <trkpt lat="44.31281" lon="3.10381">
        <ele>758.598</ele>
        <time>2019-10-28T11:35:58Z</time>
      </trkpt>
      <trkpt lat="44.31336" lon="3.1002">
        <ele>754.524</ele>
        <time>2019-10-28T11:36:28Z</time>
      </trkpt>
      <trkpt lat="44.31455" lon="3.09746">
        <ele>746.845</ele>
        <time>2019-10-28T11:36:58Z</time>
      </trkpt>
      <trkpt lat="44.3166" lon="3.09484">
        <ele>741.334</ele>
        <time>2019-10-28T11:37:28Z</time>
      </trkpt>
      <trkpt lat="44.31784" lon="3.09296">
        <ele>738.118</ele>
        <time>2019-10-28T11:37:58Z</time>
      </trkpt>
      <trkpt lat="44.31923" lon="3.09067">
        <ele>732.282</ele>
        <time>2019-10-28T11:38:28Z</time>
      </trkpt>
      <trkpt lat="44.32058" lon="3.08773">
        <ele>726.744</ele>
        <time>2019-10-28T11:39:01Z</time>
      </trkpt>
      <trkpt lat="44.32122" lon="3.08493">
        <ele>719.095</ele>
        <time>2019-10-28T11:39:31Z</time>
      </trkpt>
      <trkpt lat="44.32147" lon="3.08174">
        <ele>721.216</ele>
        <time>2019-10-28T11:40:01Z</time>
      </trkpt>
      <trkpt lat="44.32141" lon="3.07945">
        <ele>725.065</ele>
        <time>2019-10-28T11:40:31Z</time>
      </trkpt>
      <trkpt lat="44.32106" lon="3.07753">
        <ele>729.025</ele>
        <time>2019-10-28T11:41:01Z</time>
      </trkpt>
      <trkpt lat="44.32106" lon="3.0756">
        <ele>726.786</ele>
        <time>2019-10-28T11:41:31Z</time>
      </trkpt>
      <trkpt lat="44.32069" lon="3.0746">
        <ele>728.573</ele>
        <time>2019-10-28T11:42:55Z</time>
      </trkpt>
      <trkpt lat="44.32097" lon="3.07407">
        <ele>726.572</ele>
        <time>2019-10-28T11:46:19Z</time>
      </trkpt>
      <trkpt lat="44.32142" lon="3.07351">
        <ele>733.811</ele>
        <time>2019-10-28T11:46:52Z</time>
      </trkpt>
      <trkpt lat="44.32075" lon="3.07435">
        <ele>740.695</ele>
        <time>2019-10-28T11:47:28Z</time>
      </trkpt>
      <trkpt lat="44.32086" lon="3.07325">
        <ele>733.473</ele>
        <time>2019-10-28T11:47:58Z</time>
      </trkpt>
      <trkpt lat="44.3207" lon="3.07129">
        <ele>724.746</ele>
        <time>2019-10-28T11:48:28Z</time>
      </trkpt>
      <trkpt lat="44.31988" lon="3.06918">
        <ele>712.659</ele>
        <time>2019-10-28T11:48:58Z</time>
      </trkpt>
      <trkpt lat="44.32038" lon="3.06688">
        <ele>705.945</ele>
        <time>2019-10-28T11:49:28Z</time>
      </trkpt>
      <trkpt lat="44.32166" lon="3.06572">
        <ele>705.9</ele>
        <time>2019-10-28T11:49:58Z</time>
      </trkpt>
      <trkpt lat="44.32287" lon="3.06364">
        <ele>704.741</ele>
        <time>2019-10-28T11:50:28Z</time>
      </trkpt>
      <trkpt lat="44.32337" lon="3.06045">
        <ele>696.6</ele>
        <time>2019-10-28T11:50:58Z</time>
      </trkpt>
      <trkpt lat="44.32399" lon="3.05813">
        <ele>684.592</ele>
        <time>2019-10-28T11:51:28Z</time>
      </trkpt>
      <trkpt lat="44.32543" lon="3.05727">
        <ele>660.253</ele>
        <time>2019-10-28T11:52:01Z</time>
      </trkpt>
      <trkpt lat="44.32684" lon="3.05628">
        <ele>662.815</ele>
        <time>2019-10-28T11:52:31Z</time>
      </trkpt>
      <trkpt lat="44.32836" lon="3.05567">
        <ele>666.485</ele>
        <time>2019-10-28T11:53:01Z</time>
      </trkpt>
      <trkpt lat="44.32955" lon="3.0534">
        <ele>659.976</ele>
        <time>2019-10-28T11:53:31Z</time>
      </trkpt>
      <trkpt lat="44.33005" lon="3.05084">
        <ele>660.13</ele>
        <time>2019-10-28T11:54:01Z</time>
      </trkpt>
      <trkpt lat="44.33046" lon="3.04843">
        <ele>661.828</ele>
        <time>2019-10-28T11:54:31Z</time>
      </trkpt>
      <trkpt lat="44.33089" lon="3.046">
        <ele>659.371</ele>
        <time>2019-10-28T11:55:01Z</time>
      </trkpt>
      <trkpt lat="44.33188" lon="3.04405">
        <ele>657.001</ele>
        <time>2019-10-28T11:55:31Z</time>
      </trkpt>
      <trkpt lat="44.33241" lon="3.04109">
        <ele>657.952</ele>
        <time>2019-10-28T11:56:04Z</time>
      </trkpt>
      <trkpt lat="44.33319" lon="3.03852">
        <ele>656.572</ele>
        <time>2019-10-28T11:56:34Z</time>
      </trkpt>
      <trkpt lat="44.33357" lon="3.03584">
        <ele>652.493</ele>
        <time>2019-10-28T11:57:04Z</time>
      </trkpt>
      <trkpt lat="44.33371" lon="3.03293">
        <ele>652.793</ele>
        <time>2019-10-28T11:57:34Z</time>
      </trkpt>
      <trkpt lat="44.33428" lon="3.03027">
        <ele>650.289</ele>
        <time>2019-10-28T11:58:04Z</time>
      </trkpt>
      <trkpt lat="44.33591" lon="3.02866">
        <ele>650.934</ele>
        <time>2019-10-28T11:58:34Z</time>
      </trkpt>
      <trkpt lat="44.33794" lon="3.0279">
        <ele>655.578</ele>
        <time>2019-10-28T11:59:04Z</time>
      </trkpt>
      <trkpt lat="44.33986" lon="3.02665">
        <ele>650.779</ele>
        <time>2019-10-28T11:59:34Z</time>
      </trkpt>
      <trkpt lat="44.34146" lon="3.02438">
        <ele>643.657</ele>
        <time>2019-10-28T12:00:04Z</time>
      </trkpt>
      <trkpt lat="44.34289" lon="3.02158">
        <ele>641.345</ele>
        <time>2019-10-28T12:00:37Z</time>
      </trkpt>
      <trkpt lat="44.34388" lon="3.01917">
        <ele>643.242</ele>
        <time>2019-10-28T12:01:07Z</time>
      </trkpt>
      <trkpt lat="44.34484" lon="3.01702">
        <ele>642.102</ele>
        <time>2019-10-28T12:01:37Z</time>
      </trkpt>
      <trkpt lat="44.34591" lon="3.01498">
        <ele>640.403</ele>
        <time>2019-10-28T12:02:07Z</time>
      </trkpt>
      <trkpt lat="44.34647" lon="3.01245">
        <ele>639.567</ele>
        <time>2019-10-28T12:02:37Z</time>
      </trkpt>
      <trkpt lat="44.34664" lon="3.00953">
        <ele>639.615</ele>
        <time>2019-10-28T12:03:07Z</time>
      </trkpt>
      <trkpt lat="44.34671" lon="3.00675">
        <ele>637.982</ele>
        <time>2019-10-28T12:03:37Z</time>
      </trkpt>
      <trkpt lat="44.34691" lon="3.00422">
        <ele>636.116</ele>
        <time>2019-10-28T12:04:07Z</time>
      </trkpt>
      <trkpt lat="44.34747" lon="3.0024">
        <ele>639.98</ele>
        <time>2019-10-28T12:04:37Z</time>
      </trkpt>
      <trkpt lat="44.34806" lon="3.00067">
        <ele>643.469</ele>
        <time>2019-10-28T12:05:10Z</time>
      </trkpt>
      <trkpt lat="44.34859" lon="2.99906">
        <ele>646.794</ele>
        <time>2019-10-28T12:05:40Z</time>
      </trkpt>
      <trkpt lat="44.34893" lon="2.99792">
        <ele>651.505</ele>
        <time>2019-10-28T12:06:10Z</time>
      </trkpt>
      <trkpt lat="44.34907" lon="2.99684">
        <ele>656.879</ele>
        <time>2019-10-28T12:06:40Z</time>
      </trkpt>
      <trkpt lat="44.34899" lon="2.99577">
        <ele>660.822</ele>
        <time>2019-10-28T12:07:10Z</time>
      </trkpt>
      <trkpt lat="44.3488" lon="2.99458">
        <ele>660.693</ele>
        <time>2019-10-28T12:07:40Z</time>
      </trkpt>
      <trkpt lat="44.34855" lon="2.99342">
        <ele>659.596</ele>
        <time>2019-10-28T12:08:10Z</time>
      </trkpt>
      <trkpt lat="44.34835" lon="2.99208">
        <ele>659.207</ele>
        <time>2019-10-28T12:08:40Z</time>
      </trkpt>
      <trkpt lat="44.3481" lon="2.99014">
        <ele>658.064</ele>
        <time>2019-10-28T12:09:13Z</time>
      </trkpt>
      <trkpt lat="44.34814" lon="2.98958">
        <ele>661.638</ele>
        <time>2019-10-28T12:10:01Z</time>
      </trkpt>
      <trkpt lat="44.34823" lon="2.98966">
        <ele>664.721</ele>
        <time>2019-10-28T12:44:49Z</time>
      </trkpt>
      <trkpt lat="44.34815" lon="2.98748">
        <ele>655.415</ele>
        <time>2019-10-28T12:45:19Z</time>
      </trkpt>
      <trkpt lat="44.34641" lon="2.98458">
        <ele>641.752</ele>
        <time>2019-10-28T12:45:49Z</time>
      </trkpt>
      <trkpt lat="44.34518" lon="2.98236">
        <ele>639.997</ele>
        <time>2019-10-28T12:46:19Z</time>
      </trkpt>
      <trkpt lat="44.34446" lon="2.98104">
        <ele>646.251</ele>
        <time>2019-10-28T12:46:49Z</time>
      </trkpt>
      <trkpt lat="44.34446" lon="2.98071">
        <ele>645.63</ele>
        <time>2019-10-28T12:50:28.001Z</time>
      </trkpt>
      <trkpt lat="44.34383" lon="2.97964">
        <ele>648.399</ele>
        <time>2019-10-28T12:50:58.001Z</time>
      </trkpt>
      <trkpt lat="44.3431" lon="2.97808">
        <ele>653.577</ele>
        <time>2019-10-28T12:51:31.001Z</time>
      </trkpt>
      <trkpt lat="44.34258" lon="2.9761">
        <ele>652.277</ele>
        <time>2019-10-28T12:52:01.001Z</time>
      </trkpt>
      <trkpt lat="44.34232" lon="2.97412">
        <ele>651.628</ele>
        <time>2019-10-28T12:52:31.001Z</time>
      </trkpt>
      <trkpt lat="44.34202" lon="2.97204">
        <ele>649.578</ele>
        <time>2019-10-28T12:53:01.001Z</time>
      </trkpt>
      <trkpt lat="44.34152" lon="2.96959">
        <ele>650.093</ele>
        <time>2019-10-28T12:53:31.001Z</time>
      </trkpt>
      <trkpt lat="44.34123" lon="2.96668">
        <ele>648.628</ele>
        <time>2019-10-28T12:54:01.001Z</time>
      </trkpt>
      <trkpt lat="44.34278" lon="2.96367">
        <ele>632.242</ele>
        <time>2019-10-28T12:54:31.001Z</time>
      </trkpt>
      <trkpt lat="44.34423" lon="2.96276">
        <ele>630.244</ele>
        <time>2019-10-28T12:55:01.001Z</time>
      </trkpt>
      <trkpt lat="44.34535" lon="2.96143">
        <ele>630.75</ele>
        <time>2019-10-28T12:55:31.001Z</time>
      </trkpt>
      <trkpt lat="44.34594" lon="2.95875">
        <ele>629.113</ele>
        <time>2019-10-28T12:56:04.001Z</time>
      </trkpt>
      <trkpt lat="44.34721" lon="2.95654">
        <ele>623.541</ele>
        <time>2019-10-28T12:56:34.001Z</time>
      </trkpt>
      <trkpt lat="44.3476" lon="2.95477">
        <ele>627.278</ele>
        <time>2019-10-28T12:57:04.001Z</time>
      </trkpt>
      <trkpt lat="44.34793" lon="2.95341">
        <ele>634.401</ele>
        <time>2019-10-28T12:57:34.001Z</time>
      </trkpt>
      <trkpt lat="44.34822" lon="2.95212">
        <ele>643.075</ele>
        <time>2019-10-28T12:58:04.001Z</time>
      </trkpt>
      <trkpt lat="44.34847" lon="2.95081">
        <ele>639.36</ele>
        <time>2019-10-28T12:58:34.001Z</time>
      </trkpt>
      <trkpt lat="44.34857" lon="2.94944">
        <ele>640.868</ele>
        <time>2019-10-28T12:59:04.001Z</time>
      </trkpt>
      <trkpt lat="44.34874" lon="2.94795">
        <ele>642.065</ele>
        <time>2019-10-28T12:59:34.001Z</time>
      </trkpt>
      <trkpt lat="44.34927" lon="2.94603">
        <ele>640.417</ele>
        <time>2019-10-28T13:00:07.001Z</time>
      </trkpt>
      <trkpt lat="44.35023" lon="2.94385">
        <ele>639.155</ele>
        <time>2019-10-28T13:00:37.001Z</time>
      </trkpt>
      <trkpt lat="44.35156" lon="2.9415">
        <ele>639.723</ele>
        <time>2019-10-28T13:01:07.001Z</time>
      </trkpt>
      <trkpt lat="44.35201" lon="2.93852">
        <ele>633.481</ele>
        <time>2019-10-28T13:01:37.001Z</time>
      </trkpt>
      <trkpt lat="44.3512" lon="2.93502">
        <ele>622.025</ele>
        <time>2019-10-28T13:02:07.001Z</time>
      </trkpt>
      <trkpt lat="44.35235" lon="2.93213">
        <ele>617.46</ele>
        <time>2019-10-28T13:02:37.001Z</time>
      </trkpt>
      <trkpt lat="44.35373" lon="2.92967">
        <ele>625.966</ele>
        <time>2019-10-28T13:03:07.001Z</time>
      </trkpt>
      <trkpt lat="44.35333" lon="2.92706">
        <ele>614.653</ele>
        <time>2019-10-28T13:03:37.001Z</time>
      </trkpt>
      <trkpt lat="44.35273" lon="2.92441">
        <ele>610.127</ele>
        <time>2019-10-28T13:04:07.001Z</time>
      </trkpt>
      <trkpt lat="44.35332" lon="2.92136">
        <ele>606.473</ele>
        <time>2019-10-28T13:04:40.001Z</time>
      </trkpt>
      <trkpt lat="44.35412" lon="2.91934">
        <ele>615.221</ele>
        <time>2019-10-28T13:05:10.001Z</time>
      </trkpt>
      <trkpt lat="44.35407" lon="2.91708">
        <ele>613.96</ele>
        <time>2019-10-28T13:05:40.001Z</time>
      </trkpt>
      <trkpt lat="44.35344" lon="2.91469">
        <ele>605.062</ele>
        <time>2019-10-28T13:06:10.001Z</time>
      </trkpt>
      <trkpt lat="44.3536" lon="2.91231">
        <ele>607.654</ele>
        <time>2019-10-28T13:06:40.001Z</time>
      </trkpt>
      <trkpt lat="44.35413" lon="2.91004">
        <ele>613.01</ele>
        <time>2019-10-28T13:07:10.001Z</time>
      </trkpt>
      <trkpt lat="44.35544" lon="2.90817">
        <ele>604.686</ele>
        <time>2019-10-28T13:07:40.001Z</time>
      </trkpt>
      <trkpt lat="44.35685" lon="2.90693">
        <ele>605.219</ele>
        <time>2019-10-28T13:08:10.001Z</time>
      </trkpt>
      <trkpt lat="44.35789" lon="2.90504">
        <ele>608.807</ele>
        <time>2019-10-28T13:08:43.001Z</time>
      </trkpt>
      <trkpt lat="44.35916" lon="2.90388">
        <ele>612.54</ele>
        <time>2019-10-28T13:09:13.001Z</time>
      </trkpt>
      <trkpt lat="44.36079" lon="2.90327">
        <ele>614.877</ele>
        <time>2019-10-28T13:09:43.001Z</time>
      </trkpt>
      <trkpt lat="44.3621" lon="2.90179">
        <ele>617.79</ele>
        <time>2019-10-28T13:10:13.001Z</time>
      </trkpt>
      <trkpt lat="44.36323" lon="2.89989">
        <ele>615.969</ele>
        <time>2019-10-28T13:10:43.001Z</time>
      </trkpt>
      <trkpt lat="44.36386" lon="2.89785">
        <ele>614.66</ele>
        <time>2019-10-28T13:11:13.001Z</time>
      </trkpt>
      <trkpt lat="44.36386" lon="2.8957">
        <ele>606.783</ele>
        <time>2019-10-28T13:11:43.001Z</time>
      </trkpt>
      <trkpt lat="44.36356" lon="2.89284">
        <ele>599.681</ele>
        <time>2019-10-28T13:12:13.001Z</time>
      </trkpt>
      <trkpt lat="44.36348" lon="2.89009">
        <ele>601.144</ele>
        <time>2019-10-28T13:12:43.001Z</time>
      </trkpt>
      <trkpt lat="44.36413" lon="2.88791">
        <ele>603.712</ele>
        <time>2019-10-28T13:13:16Z</time>
      </trkpt>
      <trkpt lat="44.36426" lon="2.88645">
        <ele>605.058</ele>
        <time>2019-10-28T13:14:43.001Z</time>
      </trkpt>
      <trkpt lat="44.36418" lon="2.88469">
        <ele>607.852</ele>
        <time>2019-10-28T13:15:13.001Z</time>
      </trkpt>
      <trkpt lat="44.36408" lon="2.88341">
        <ele>608.08</ele>
        <time>2019-10-28T13:15:43.001Z</time>
      </trkpt>
      <trkpt lat="44.36398" lon="2.88204">
        <ele>612.083</ele>
        <time>2019-10-28T13:16:13.001Z</time>
      </trkpt>
      <trkpt lat="44.36387" lon="2.88055">
        <ele>613.186</ele>
        <time>2019-10-28T13:16:43.001Z</time>
      </trkpt>
      <trkpt lat="44.3638" lon="2.87903">
        <ele>613.893</ele>
        <time>2019-10-28T13:17:13.001Z</time>
      </trkpt>
      <trkpt lat="44.3639" lon="2.87752">
        <ele>615.665</ele>
        <time>2019-10-28T13:17:43.001Z</time>
      </trkpt>
      <trkpt lat="44.36424" lon="2.876">
        <ele>616.984</ele>
        <time>2019-10-28T13:18:13.001Z</time>
      </trkpt>
      <trkpt lat="44.36482" lon="2.87438">
        <ele>617.421</ele>
        <time>2019-10-28T13:18:46.001Z</time>
      </trkpt>
      <trkpt lat="44.36548" lon="2.8726">
        <ele>618.008</ele>
        <time>2019-10-28T13:19:16Z</time>
      </trkpt>
      <trkpt lat="44.36617" lon="2.87072">
        <ele>619.481</ele>
        <time>2019-10-28T13:19:46.001Z</time>
      </trkpt>
      <trkpt lat="44.36679" lon="2.86891">
        <ele>618.179</ele>
        <time>2019-10-28T13:20:16Z</time>
      </trkpt>
      <trkpt lat="44.36717" lon="2.86721">
        <ele>619.127</ele>
        <time>2019-10-28T13:20:46.001Z</time>
      </trkpt>
      <trkpt lat="44.36745" lon="2.86566">
        <ele>621.818</ele>
        <time>2019-10-28T13:21:16Z</time>
      </trkpt>
      <trkpt lat="44.36771" lon="2.86426">
        <ele>627.106</ele>
        <time>2019-10-28T13:21:46.001Z</time>
      </trkpt>
      <trkpt lat="44.36796" lon="2.86289">
        <ele>630.823</ele>
        <time>2019-10-28T13:22:16Z</time>
      </trkpt>
      <trkpt lat="44.36823" lon="2.86139">
        <ele>632.231</ele>
        <time>2019-10-28T13:22:49.001Z</time>
      </trkpt>
      <trkpt lat="44.36843" lon="2.86004">
        <ele>636.671</ele>
        <time>2019-10-28T13:23:19.001Z</time>
      </trkpt>
      <trkpt lat="44.36846" lon="2.85857">
        <ele>637.745</ele>
        <time>2019-10-28T13:23:49.001Z</time>
      </trkpt>
      <trkpt lat="44.36831" lon="2.85693">
        <ele>637.371</ele>
        <time>2019-10-28T13:24:19.001Z</time>
      </trkpt>
      <trkpt lat="44.36814" lon="2.85519">
        <ele>635.708</ele>
        <time>2019-10-28T13:24:49.001Z</time>
      </trkpt>
      <trkpt lat="44.36793" lon="2.85321">
        <ele>637.432</ele>
        <time>2019-10-28T13:25:19.001Z</time>
      </trkpt>
      <trkpt lat="44.36771" lon="2.8511">
        <ele>638.519</ele>
        <time>2019-10-28T13:25:49.001Z</time>
      </trkpt>
      <trkpt lat="44.36779" lon="2.84883">
        <ele>633.958</ele>
        <time>2019-10-28T13:26:19.001Z</time>
      </trkpt>
      <trkpt lat="44.36841" lon="2.84674">
        <ele>635.678</ele>
        <time>2019-10-28T13:26:49.001Z</time>
      </trkpt>
      <trkpt lat="44.36935" lon="2.84449">
        <ele>636.557</ele>
        <time>2019-10-28T13:27:22.001Z</time>
      </trkpt>
      <trkpt lat="44.37021" lon="2.84244">
        <ele>632.866</ele>
        <time>2019-10-28T13:27:52.001Z</time>
      </trkpt>
      <trkpt lat="44.37138" lon="2.84035">
        <ele>630.973</ele>
        <time>2019-10-28T13:28:22.001Z</time>
      </trkpt>
      <trkpt lat="44.37284" lon="2.83774">
        <ele>625.016</ele>
        <time>2019-10-28T13:28:52.001Z</time>
      </trkpt>
      <trkpt lat="44.37447" lon="2.83498">
        <ele>619.231</ele>
        <time>2019-10-28T13:29:22.001Z</time>
      </trkpt>
      <trkpt lat="44.37647" lon="2.83293">
        <ele>612.933</ele>
        <time>2019-10-28T13:29:52.001Z</time>
      </trkpt>
      <trkpt lat="44.37872" lon="2.83142">
        <ele>611.965</ele>
        <time>2019-10-28T13:30:22.001Z</time>
      </trkpt>
      <trkpt lat="44.38111" lon="2.82991">
        <ele>605.41</ele>
        <time>2019-10-28T13:30:52.001Z</time>
      </trkpt>
      <trkpt lat="44.38363" lon="2.82833">
        <ele>600.365</ele>
        <time>2019-10-28T13:31:22.001Z</time>
      </trkpt>
      <trkpt lat="44.38589" lon="2.82524">
        <ele>586.486</ele>
        <time>2019-10-28T13:31:55.001Z</time>
      </trkpt>
      <trkpt lat="44.38645" lon="2.82203">
        <ele>580.413</ele>
        <time>2019-10-28T13:32:25.001Z</time>
      </trkpt>
      <trkpt lat="44.38618" lon="2.81964">
        <ele>582.799</ele>
        <time>2019-10-28T13:32:55.001Z</time>
      </trkpt>
      <trkpt lat="44.38587" lon="2.81786">
        <ele>586</ele>
        <time>2019-10-28T13:33:25.001Z</time>
      </trkpt>
      <trkpt lat="44.3856" lon="2.8164">
        <ele>589.752</ele>
        <time>2019-10-28T13:33:55.001Z</time>
      </trkpt>
      <trkpt lat="44.38537" lon="2.81494">
        <ele>591.806</ele>
        <time>2019-10-28T13:34:25.001Z</time>
      </trkpt>
      <trkpt lat="44.38508" lon="2.81352">
        <ele>595.619</ele>
        <time>2019-10-28T13:34:55.001Z</time>
      </trkpt>
      <trkpt lat="44.38485" lon="2.81202">
        <ele>597.096</ele>
        <time>2019-10-28T13:35:25.001Z</time>
      </trkpt>
      <trkpt lat="44.38463" lon="2.81031">
        <ele>601.947</ele>
        <time>2019-10-28T13:35:58.001Z</time>
      </trkpt>
      <trkpt lat="44.38447" lon="2.80875">
        <ele>600.05</ele>
        <time>2019-10-28T13:36:28.001Z</time>
      </trkpt>
      <trkpt lat="44.38429" lon="2.80723">
        <ele>602.94</ele>
        <time>2019-10-28T13:36:58.001Z</time>
      </trkpt>
      <trkpt lat="44.38411" lon="2.80566">
        <ele>606.259</ele>
        <time>2019-10-28T13:37:28.001Z</time>
      </trkpt>
      <trkpt lat="44.38403" lon="2.80407">
        <ele>607.23</ele>
        <time>2019-10-28T13:37:58.001Z</time>
      </trkpt>
      <trkpt lat="44.38423" lon="2.80253">
        <ele>612.636</ele>
        <time>2019-10-28T13:38:28.001Z</time>
      </trkpt>
      <trkpt lat="44.38469" lon="2.80098">
        <ele>619.579</ele>
        <time>2019-10-28T13:38:58.001Z</time>
      </trkpt>
      <trkpt lat="44.38564" lon="2.79945">
        <ele>616.346</ele>
        <time>2019-10-28T13:39:28.001Z</time>
      </trkpt>
      <trkpt lat="44.38714" lon="2.79761">
        <ele>611.168</ele>
        <time>2019-10-28T13:39:58.001Z</time>
      </trkpt>
      <trkpt lat="44.38958" lon="2.79593">
        <ele>603.445</ele>
        <time>2019-10-28T13:40:31.001Z</time>
      </trkpt>
      <trkpt lat="44.39081" lon="2.79298">
        <ele>593.999</ele>
        <time>2019-10-28T13:41:01.001Z</time>
      </trkpt>
      <trkpt lat="44.39189" lon="2.79013">
        <ele>590.815</ele>
        <time>2019-10-28T13:41:31.001Z</time>
      </trkpt>
      <trkpt lat="44.39266" lon="2.78702">
        <ele>586.391</ele>
        <time>2019-10-28T13:42:01.001Z</time>
      </trkpt>
      <trkpt lat="44.393" lon="2.78405">
        <ele>584.255</ele>
        <time>2019-10-28T13:42:31.001Z</time>
      </trkpt>
      <trkpt lat="44.39308" lon="2.78116">
        <ele>588.019</ele>
        <time>2019-10-28T13:43:01.001Z</time>
      </trkpt>
      <trkpt lat="44.39344" lon="2.77838">
        <ele>591.452</ele>
        <time>2019-10-28T13:43:31.001Z</time>
      </trkpt>
      <trkpt lat="44.39433" lon="2.77618">
        <ele>589.55</ele>
        <time>2019-10-28T13:44:01.001Z</time>
      </trkpt>
      <trkpt lat="44.39537" lon="2.77386">
        <ele>583.757</ele>
        <time>2019-10-28T13:44:31.001Z</time>
      </trkpt>
      <trkpt lat="44.39569" lon="2.7709">
        <ele>580.007</ele>
        <time>2019-10-28T13:45:04.001Z</time>
      </trkpt>
      <trkpt lat="44.39595" lon="2.76822">
        <ele>576.591</ele>
        <time>2019-10-28T13:45:34.001Z</time>
      </trkpt>
      <trkpt lat="44.39565" lon="2.76549">
        <ele>574.533</ele>
        <time>2019-10-28T13:46:04.001Z</time>
      </trkpt>
      <trkpt lat="44.39485" lon="2.76208">
        <ele>569.595</ele>
        <time>2019-10-28T13:46:34.001Z</time>
      </trkpt>
      <trkpt lat="44.39501" lon="2.75865">
        <ele>565.101</ele>
        <time>2019-10-28T13:47:04.001Z</time>
      </trkpt>
      <trkpt lat="44.39538" lon="2.75555">
        <ele>561.89</ele>
        <time>2019-10-28T13:47:34.001Z</time>
      </trkpt>
      <trkpt lat="44.3961" lon="2.75278">
        <ele>563.57</ele>
        <time>2019-10-28T13:48:04.001Z</time>
      </trkpt>
      <trkpt lat="44.39723" lon="2.75026">
        <ele>567.391</ele>
        <time>2019-10-28T13:48:34.001Z</time>
      </trkpt>
      <trkpt lat="44.39846" lon="2.74766">
        <ele>565.963</ele>
        <time>2019-10-28T13:49:07.001Z</time>
      </trkpt>
      <trkpt lat="44.39941" lon="2.7457">
        <ele>564.432</ele>
        <time>2019-10-28T13:49:37.001Z</time>
      </trkpt>
      <trkpt lat="44.40045" lon="2.74432">
        <ele>566.663</ele>
        <time>2019-10-28T13:50:07.001Z</time>
      </trkpt>
      <trkpt lat="44.40143" lon="2.74315">
        <ele>569.543</ele>
        <time>2019-10-28T13:50:37.001Z</time>
      </trkpt>
      <trkpt lat="44.4023" lon="2.74185">
        <ele>570.871</ele>
        <time>2019-10-28T13:51:07.001Z</time>
      </trkpt>
      <trkpt lat="44.40289" lon="2.74033">
        <ele>572.826</ele>
        <time>2019-10-28T13:51:37.001Z</time>
      </trkpt>
      <trkpt lat="44.40315" lon="2.73848">
        <ele>571.078</ele>
        <time>2019-10-28T13:52:07.001Z</time>
      </trkpt>
      <trkpt lat="44.40294" lon="2.73611">
        <ele>567.883</ele>
        <time>2019-10-28T13:52:37.001Z</time>
      </trkpt>
      <trkpt lat="44.40239" lon="2.73348">
        <ele>566.097</ele>
        <time>2019-10-28T13:53:07.001Z</time>
      </trkpt>
      <trkpt lat="44.40191" lon="2.73061">
        <ele>565.229</ele>
        <time>2019-10-28T13:53:40.001Z</time>
      </trkpt>
      <trkpt lat="44.40216" lon="2.72801">
        <ele>563.546</ele>
        <time>2019-10-28T13:54:10.001Z</time>
      </trkpt>
      <trkpt lat="44.40241" lon="2.72569">
        <ele>562.174</ele>
        <time>2019-10-28T13:54:40.001Z</time>
      </trkpt>
      <trkpt lat="44.40175" lon="2.72341">
        <ele>563.175</ele>
        <time>2019-10-28T13:55:10.001Z</time>
      </trkpt>
      <trkpt lat="44.40042" lon="2.72158">
        <ele>561.15</ele>
        <time>2019-10-28T13:55:40.001Z</time>
      </trkpt>
      <trkpt lat="44.39965" lon="2.71925">
        <ele>561.294</ele>
        <time>2019-10-28T13:56:10.001Z</time>
      </trkpt>
      <trkpt lat="44.39954" lon="2.71663">
        <ele>558.945</ele>
        <time>2019-10-28T13:56:40.001Z</time>
      </trkpt>
      <trkpt lat="44.39855" lon="2.71454">
        <ele>556.378</ele>
        <time>2019-10-28T13:57:10.001Z</time>
      </trkpt>
      <trkpt lat="44.39733" lon="2.71236">
        <ele>554.234</ele>
        <time>2019-10-28T13:57:40.001Z</time>
      </trkpt>
      <trkpt lat="44.39601" lon="2.71019">
        <ele>552.552</ele>
        <time>2019-10-28T13:58:13.001Z</time>
      </trkpt>
      <trkpt lat="44.39464" lon="2.70911">
        <ele>556.249</ele>
        <time>2019-10-28T13:58:43.001Z</time>
      </trkpt>
      <trkpt lat="44.39424" lon="2.70715">
        <ele>560.327</ele>
        <time>2019-10-28T13:59:13.001Z</time>
      </trkpt>
      <trkpt lat="44.3932" lon="2.70585">
        <ele>558.613</ele>
        <time>2019-10-28T13:59:43.001Z</time>
      </trkpt>
      <trkpt lat="44.39175" lon="2.70542">
        <ele>559.017</ele>
        <time>2019-10-28T14:00:13.001Z</time>
      </trkpt>
      <trkpt lat="44.39025" lon="2.70487">
        <ele>557.216</ele>
        <time>2019-10-28T14:00:43.001Z</time>
      </trkpt>
      <trkpt lat="44.38883" lon="2.70378">
        <ele>553.384</ele>
        <time>2019-10-28T14:01:13.001Z</time>
      </trkpt>
      <trkpt lat="44.38894" lon="2.70127">
        <ele>553.319</ele>
        <time>2019-10-28T14:01:43.001Z</time>
      </trkpt>
      <trkpt lat="44.38959" lon="2.69875">
        <ele>551.577</ele>
        <time>2019-10-28T14:02:16Z</time>
      </trkpt>
      <trkpt lat="44.39019" lon="2.69628">
        <ele>551.868</ele>
        <time>2019-10-28T14:02:46.001Z</time>
      </trkpt>
      <trkpt lat="44.39076" lon="2.69385">
        <ele>554.714</ele>
        <time>2019-10-28T14:03:16Z</time>
      </trkpt>
      <trkpt lat="44.39133" lon="2.6915">
        <ele>551.739</ele>
        <time>2019-10-28T14:03:46.001Z</time>
      </trkpt>
      <trkpt lat="44.39196" lon="2.68917">
        <ele>551.016</ele>
        <time>2019-10-28T14:04:16Z</time>
      </trkpt>
      <trkpt lat="44.39236" lon="2.68669">
        <ele>549.901</ele>
        <time>2019-10-28T14:04:46.001Z</time>
      </trkpt>
      <trkpt lat="44.39244" lon="2.68427">
        <ele>549.097</ele>
        <time>2019-10-28T14:05:16Z</time>
      </trkpt>
      <trkpt lat="44.39225" lon="2.68195">
        <ele>548.683</ele>
        <time>2019-10-28T14:05:46.001Z</time>
      </trkpt>
      <trkpt lat="44.39205" lon="2.6799">
        <ele>551.171</ele>
        <time>2019-10-28T14:06:16Z</time>
      </trkpt>
      <trkpt lat="44.3918" lon="2.67767">
        <ele>553.72</ele>
        <time>2019-10-28T14:06:49.001Z</time>
      </trkpt>
      <trkpt lat="44.39141" lon="2.67564">
        <ele>551.456</ele>
        <time>2019-10-28T14:07:19.001Z</time>
      </trkpt>
      <trkpt lat="44.39169" lon="2.67457">
        <ele>558.385</ele>
        <time>2019-10-28T14:07:49.001Z</time>
      </trkpt>
      <trkpt lat="44.3918" lon="2.67374">
        <ele>562.318</ele>
        <time>2019-10-28T14:08:19.001Z</time>
      </trkpt>
      <trkpt lat="44.39208" lon="2.67308">
        <ele>568.831</ele>
        <time>2019-10-28T14:08:49.001Z</time>
      </trkpt>
      <trkpt lat="44.39257" lon="2.67259">
        <ele>575.494</ele>
        <time>2019-10-28T14:09:19.001Z</time>
      </trkpt>
      <trkpt lat="44.39282" lon="2.67218">
        <ele>574.365</ele>
        <time>2019-10-28T14:14:13.001Z</time>
      </trkpt>
      <trkpt lat="44.39333" lon="2.67113">
        <ele>572.659</ele>
        <time>2019-10-28T14:14:43.001Z</time>
      </trkpt>
      <trkpt lat="44.39436" lon="2.67032">
        <ele>572.893</ele>
        <time>2019-10-28T14:15:16Z</time>
      </trkpt>
      <trkpt lat="44.3955" lon="2.66902">
        <ele>572.958</ele>
        <time>2019-10-28T14:15:46.001Z</time>
      </trkpt>
      <trkpt lat="44.39588" lon="2.66628">
        <ele>566.507</ele>
        <time>2019-10-28T14:16:16Z</time>
      </trkpt>
      <trkpt lat="44.39689" lon="2.66502">
        <ele>571.685</ele>
        <time>2019-10-28T14:16:46.001Z</time>
      </trkpt>
      <trkpt lat="44.39818" lon="2.66414">
        <ele>572.882</ele>
        <time>2019-10-28T14:17:16Z</time>
      </trkpt>
      <trkpt lat="44.39984" lon="2.66197">
        <ele>567.008</ele>
        <time>2019-10-28T14:17:46.001Z</time>
      </trkpt>
      <trkpt lat="44.40022" lon="2.6589">
        <ele>565.758</ele>
        <time>2019-10-28T14:18:16Z</time>
      </trkpt>
      <trkpt lat="44.40029" lon="2.65754">
        <ele>567.038</ele>
        <time>2019-10-28T14:18:46.001Z</time>
      </trkpt>
      <trkpt lat="44.40056" lon="2.65658">
        <ele>567.352</ele>
        <time>2019-10-28T14:19:16Z</time>
      </trkpt>
      <trkpt lat="44.40113" lon="2.65607">
        <ele>581.324</ele>
        <time>2019-10-28T14:19:49.001Z</time>
      </trkpt>
      <trkpt lat="44.40177" lon="2.65612">
        <ele>588.736</ele>
        <time>2019-10-28T14:20:19.001Z</time>
      </trkpt>
      <trkpt lat="44.40239" lon="2.65623">
        <ele>584.895</ele>
        <time>2019-10-28T14:20:49.001Z</time>
      </trkpt>
      <trkpt lat="44.40261" lon="2.65537">
        <ele>588.683</ele>
        <time>2019-10-28T14:21:19.001Z</time>
      </trkpt>
      <trkpt lat="44.40278" lon="2.65452">
        <ele>591.322</ele>
        <time>2019-10-28T14:21:52.001Z</time>
      </trkpt>
      <trkpt lat="44.40305" lon="2.65366">
        <ele>593.839</ele>
        <time>2019-10-28T14:22:22.001Z</time>
      </trkpt>
      <trkpt lat="44.40353" lon="2.65263">
        <ele>596.138</ele>
        <time>2019-10-28T14:22:52.001Z</time>
      </trkpt>
      <trkpt lat="44.40393" lon="2.65161">
        <ele>603.156</ele>
        <time>2019-10-28T14:23:22.001Z</time>
      </trkpt>
      <trkpt lat="44.40435" lon="2.65071">
        <ele>608.675</ele>
        <time>2019-10-28T14:23:52.001Z</time>
      </trkpt>
      <trkpt lat="44.40483" lon="2.6496">
        <ele>606.528</ele>
        <time>2019-10-28T14:24:25.001Z</time>
      </trkpt>
      <trkpt lat="44.40522" lon="2.64866">
        <ele>605.239</ele>
        <time>2019-10-28T14:24:55.001Z</time>
      </trkpt>
      <trkpt lat="44.40554" lon="2.64765">
        <ele>606.245</ele>
        <time>2019-10-28T14:25:25.001Z</time>
      </trkpt>
      <trkpt lat="44.4058" lon="2.64671">
        <ele>605.06</ele>
        <time>2019-10-28T14:25:55.001Z</time>
      </trkpt>
      <trkpt lat="44.40625" lon="2.6459">
        <ele>613.131</ele>
        <time>2019-10-28T14:26:25.001Z</time>
      </trkpt>
      <trkpt lat="44.40716" lon="2.64445">
        <ele>614.317</ele>
        <time>2019-10-28T14:26:55.001Z</time>
      </trkpt>
      <trkpt lat="44.40802" lon="2.64322">
        <ele>615.301</ele>
        <time>2019-10-28T14:27:25.001Z</time>
      </trkpt>
      <trkpt lat="44.4082" lon="2.64208">
        <ele>617.709</ele>
        <time>2019-10-28T14:27:55.001Z</time>
      </trkpt>
      <trkpt lat="44.40864" lon="2.63913">
        <ele>613.3</ele>
        <time>2019-10-28T14:28:28.001Z</time>
      </trkpt>
      <trkpt lat="44.4098" lon="2.63729">
        <ele>609.622</ele>
        <time>2019-10-28T14:28:58.001Z</time>
      </trkpt>
      <trkpt lat="44.40969" lon="2.63571">
        <ele>605.497</ele>
        <time>2019-10-28T14:29:28.001Z</time>
      </trkpt>
      <trkpt lat="44.40818" lon="2.63291">
        <ele>601.149</ele>
        <time>2019-10-28T14:29:58.001Z</time>
      </trkpt>
      <trkpt lat="44.40699" lon="2.63064">
        <ele>600.518</ele>
        <time>2019-10-28T14:30:28.001Z</time>
      </trkpt>
      <trkpt lat="44.4061" lon="2.62949">
        <ele>605.294</ele>
        <time>2019-10-28T14:30:58.001Z</time>
      </trkpt>
      <trkpt lat="44.40491" lon="2.62898">
        <ele>608.414</ele>
        <time>2019-10-28T14:31:28.001Z</time>
      </trkpt>
      <trkpt lat="44.40383" lon="2.62852">
        <ele>611.453</ele>
        <time>2019-10-28T14:31:58.001Z</time>
      </trkpt>
      <trkpt lat="44.40279" lon="2.62802">
        <ele>616.733</ele>
        <time>2019-10-28T14:32:28.001Z</time>
      </trkpt>
      <trkpt lat="44.40195" lon="2.62655">
        <ele>616.769</ele>
        <time>2019-10-28T14:33:01.001Z</time>
      </trkpt>
      <trkpt lat="44.40144" lon="2.62414">
        <ele>611.918</ele>
        <time>2019-10-28T14:33:31.001Z</time>
      </trkpt>
      <trkpt lat="44.40099" lon="2.62171">
        <ele>612.285</ele>
        <time>2019-10-28T14:34:01.001Z</time>
      </trkpt>
      <trkpt lat="44.4007" lon="2.61931">
        <ele>609.374</ele>
        <time>2019-10-28T14:34:31.001Z</time>
      </trkpt>
      <trkpt lat="44.40067" lon="2.61654">
        <ele>603.812</ele>
        <time>2019-10-28T14:35:01.001Z</time>
      </trkpt>
      <trkpt lat="44.40064" lon="2.61291">
        <ele>598.042</ele>
        <time>2019-10-28T14:35:31.001Z</time>
      </trkpt>
      <trkpt lat="44.40105" lon="2.61078">
        <ele>596.888</ele>
        <time>2019-10-28T14:36:01.001Z</time>
      </trkpt>
      <trkpt lat="44.40071" lon="2.60903">
        <ele>597.061</ele>
        <time>2019-10-28T14:36:31.001Z</time>
      </trkpt>
      <trkpt lat="44.40029" lon="2.6077">
        <ele>598.827</ele>
        <time>2019-10-28T14:37:01.001Z</time>
      </trkpt>
      <trkpt lat="44.40018" lon="2.6065">
        <ele>596.093</ele>
        <time>2019-10-28T14:37:40.001Z</time>
      </trkpt>
      <trkpt lat="44.40002" lon="2.60524">
        <ele>596.057</ele>
        <time>2019-10-28T14:38:10.001Z</time>
      </trkpt>
      <trkpt lat="44.40016" lon="2.60527">
        <ele>642.549</ele>
        <time>2019-10-28T15:00:13Z</time>
      </trkpt>
      <trkpt lat="44.39985" lon="2.60777">
        <ele>469.487</ele>
        <time>2019-10-28T15:00:43Z</time>
      </trkpt>
    </trkseg>
  </trk>
</gpx>